<?xml version="1.0" encoding="UTF-8"?>
<gpx
  version="1.1"
  creator="RunKeeper - http://www.runkeeper.com"
  xmlns:xsi="http://www.w3.org/2001/XMLSchema-instance"
  xmlns="http://www.topografix.com/GPX/1/1"
  xsi:schemaLocation="http://www.topografix.com/GPX/1/1 http://www.topografix.com/GPX/1/1/gpx.xsd"
  xmlns:gpxtpx="http://www.garmin.com/xmlschemas/TrackPointExtension/v1">
<trk>
  <name><![CDATA[Walking 11/5/13 10:42 am]]></name>
  <time>2013-05-11T10:42:33Z</time>
<trkseg>
<trkpt lat="55.451500000" lon="-3.413667000"><ele>324.3</ele><time>2013-05-11T10:42:33Z</time></trkpt>
<trkpt lat="55.451425000" lon="-3.413571000"><ele>323.0</ele><time>2013-05-11T10:47:06Z</time></trkpt>
<trkpt lat="55.451361000" lon="-3.413434000"><ele>322.4</ele><time>2013-05-11T10:47:14Z</time></trkpt>
<trkpt lat="55.451318000" lon="-3.413285000"><ele>321.9</ele><time>2013-05-11T10:47:21Z</time></trkpt>
<trkpt lat="55.451250000" lon="-3.413145000"><ele>321.5</ele><time>2013-05-11T10:47:28Z</time></trkpt>
<trkpt lat="55.451194000" lon="-3.413006000"><ele>321.2</ele><time>2013-05-11T10:47:34Z</time></trkpt>
<trkpt lat="55.451138000" lon="-3.412867000"><ele>320.2</ele><time>2013-05-11T10:47:40Z</time></trkpt>
<trkpt lat="55.451091000" lon="-3.412723000"><ele>319.2</ele><time>2013-05-11T10:47:46Z</time></trkpt>
<trkpt lat="55.451023000" lon="-3.412585000"><ele>318.5</ele><time>2013-05-11T10:47:53Z</time></trkpt>
<trkpt lat="55.450942000" lon="-3.412505000"><ele>317.9</ele><time>2013-05-11T10:47:59Z</time></trkpt>
<trkpt lat="55.450885000" lon="-3.412371000"><ele>318.5</ele><time>2013-05-11T10:48:06Z</time></trkpt>
<trkpt lat="55.450833000" lon="-3.412218000"><ele>319.2</ele><time>2013-05-11T10:48:15Z</time></trkpt>
<trkpt lat="55.450833000" lon="-3.412054000"><ele>319.5</ele><time>2013-05-11T10:48:21Z</time></trkpt>
<trkpt lat="55.450813000" lon="-3.411893000"><ele>319.5</ele><time>2013-05-11T10:48:29Z</time></trkpt>
<trkpt lat="55.450724000" lon="-3.411828000"><ele>319.5</ele><time>2013-05-11T10:48:37Z</time></trkpt>
<trkpt lat="55.450631000" lon="-3.411773000"><ele>319.5</ele><time>2013-05-11T10:48:44Z</time></trkpt>
<trkpt lat="55.450527000" lon="-3.411755000"><ele>319.5</ele><time>2013-05-11T10:48:56Z</time></trkpt>
<trkpt lat="55.450440000" lon="-3.411718000"><ele>319.5</ele><time>2013-05-11T10:49:01Z</time></trkpt>
<trkpt lat="55.450339000" lon="-3.411705000"><ele>319.5</ele><time>2013-05-11T10:49:06Z</time></trkpt>
<trkpt lat="55.450246000" lon="-3.411655000"><ele>319.1</ele><time>2013-05-11T10:49:11Z</time></trkpt>
<trkpt lat="55.450152000" lon="-3.411652000"><ele>319.0</ele><time>2013-05-11T10:49:16Z</time></trkpt>
<trkpt lat="55.450053000" lon="-3.411645000"><ele>318.9</ele><time>2013-05-11T10:49:21Z</time></trkpt>
<trkpt lat="55.449970000" lon="-3.411581000"><ele>318.8</ele><time>2013-05-11T10:49:25Z</time></trkpt>
<trkpt lat="55.449922000" lon="-3.411418000"><ele>319.1</ele><time>2013-05-11T10:49:31Z</time></trkpt>
<trkpt lat="55.449870000" lon="-3.411273000"><ele>320.3</ele><time>2013-05-11T10:49:38Z</time></trkpt>
<trkpt lat="55.449810000" lon="-3.411131000"><ele>320.3</ele><time>2013-05-11T10:49:45Z</time></trkpt>
<trkpt lat="55.449779000" lon="-3.410978000"><ele>320.3</ele><time>2013-05-11T10:49:51Z</time></trkpt>
<trkpt lat="55.449755000" lon="-3.410820000"><ele>320.3</ele><time>2013-05-11T10:50:09Z</time></trkpt>
<trkpt lat="55.449686000" lon="-3.410957000"><ele>320.3</ele><time>2013-05-11T10:50:18Z</time></trkpt>
<trkpt lat="55.449620000" lon="-3.411082000"><ele>320.3</ele><time>2013-05-11T10:50:25Z</time></trkpt>
<trkpt lat="55.449550000" lon="-3.411212000"><ele>320.3</ele><time>2013-05-11T10:50:32Z</time></trkpt>
<trkpt lat="55.449462000" lon="-3.411310000"><ele>320.0</ele><time>2013-05-11T10:50:38Z</time></trkpt>
<trkpt lat="55.449385000" lon="-3.411413000"><ele>319.7</ele><time>2013-05-11T10:50:45Z</time></trkpt>
<trkpt lat="55.449292000" lon="-3.411492000"><ele>319.5</ele><time>2013-05-11T10:50:53Z</time></trkpt>
<trkpt lat="55.449215000" lon="-3.411579000"><ele>319.2</ele><time>2013-05-11T10:50:59Z</time></trkpt>
<trkpt lat="55.449122000" lon="-3.411660000"><ele>319.2</ele><time>2013-05-11T10:51:06Z</time></trkpt>
<trkpt lat="55.449038000" lon="-3.411580000"><ele>320.4</ele><time>2013-05-11T10:51:20Z</time></trkpt>
<trkpt lat="55.448962000" lon="-3.411491000"><ele>322.5</ele><time>2013-05-11T10:51:47Z</time></trkpt>
<trkpt lat="55.448901000" lon="-3.411371000"><ele>324.7</ele><time>2013-05-11T10:52:04Z</time></trkpt>
<trkpt lat="55.448852000" lon="-3.411228000"><ele>326.9</ele><time>2013-05-11T10:52:23Z</time></trkpt>
<trkpt lat="55.448805000" lon="-3.411082000"><ele>329.1</ele><time>2013-05-11T10:52:38Z</time></trkpt>
<trkpt lat="55.448761000" lon="-3.410938000"><ele>333.0</ele><time>2013-05-11T10:52:54Z</time></trkpt>
<trkpt lat="55.448703000" lon="-3.410810000"><ele>336.9</ele><time>2013-05-11T10:53:10Z</time></trkpt>
<trkpt lat="55.448652000" lon="-3.410676000"><ele>340.8</ele><time>2013-05-11T10:53:31Z</time></trkpt>
<trkpt lat="55.448632000" lon="-3.410506000"><ele>344.7</ele><time>2013-05-11T10:54:18Z</time></trkpt>
<trkpt lat="55.448598000" lon="-3.410356000"><ele>348.6</ele><time>2013-05-11T10:55:07Z</time></trkpt>
<trkpt lat="55.448569000" lon="-3.410183000"><ele>352.8</ele><time>2013-05-11T10:55:49Z</time></trkpt>
<trkpt lat="55.448528000" lon="-3.410037000"><ele>357.0</ele><time>2013-05-11T10:56:04Z</time></trkpt>
<trkpt lat="55.448467000" lon="-3.409885000"><ele>360.2</ele><time>2013-05-11T10:56:40Z</time></trkpt>
<trkpt lat="55.448428000" lon="-3.409741000"><ele>363.4</ele><time>2013-05-11T10:57:02Z</time></trkpt>
<trkpt lat="55.448399000" lon="-3.409574000"><ele>366.5</ele><time>2013-05-11T10:57:40Z</time></trkpt>
<trkpt lat="55.448362000" lon="-3.409420000"><ele>369.7</ele><time>2013-05-11T10:58:02Z</time></trkpt>
<trkpt lat="55.448295000" lon="-3.409310000"><ele>372.7</ele><time>2013-05-11T10:58:22Z</time></trkpt>
<trkpt lat="55.448259000" lon="-3.409163000"><ele>375.7</ele><time>2013-05-11T10:58:37Z</time></trkpt>
<trkpt lat="55.448202000" lon="-3.409032000"><ele>378.7</ele><time>2013-05-11T10:58:50Z</time></trkpt>
<trkpt lat="55.448137000" lon="-3.408903000"><ele>381.8</ele><time>2013-05-11T10:59:04Z</time></trkpt>
<trkpt lat="55.448103000" lon="-3.408748000"><ele>384.9</ele><time>2013-05-11T10:59:21Z</time></trkpt>
<trkpt lat="55.448059000" lon="-3.408605000"><ele>386.5</ele><time>2013-05-11T10:59:39Z</time></trkpt>
<trkpt lat="55.448011000" lon="-3.408470000"><ele>389.7</ele><time>2013-05-11T10:59:55Z</time></trkpt>
<trkpt lat="55.447956000" lon="-3.408330000"><ele>392.9</ele><time>2013-05-11T11:00:10Z</time></trkpt>
<trkpt lat="55.447913000" lon="-3.408187000"><ele>396.1</ele><time>2013-05-11T11:00:50Z</time></trkpt>
<trkpt lat="55.447853000" lon="-3.408060000"><ele>399.3</ele><time>2013-05-11T11:01:07Z</time></trkpt>
<trkpt lat="55.447797000" lon="-3.407923000"><ele>402.5</ele><time>2013-05-11T11:01:21Z</time></trkpt>
<trkpt lat="55.447745000" lon="-3.407786000"><ele>405.6</ele><time>2013-05-11T11:01:33Z</time></trkpt>
<trkpt lat="55.447686000" lon="-3.407659000"><ele>408.8</ele><time>2013-05-11T11:01:46Z</time></trkpt>
<trkpt lat="55.447678000" lon="-3.407497000"><ele>412.0</ele><time>2013-05-11T11:02:44Z</time></trkpt>
<trkpt lat="55.447656000" lon="-3.407343000"><ele>415.1</ele><time>2013-05-11T11:02:55Z</time></trkpt>
<trkpt lat="55.447644000" lon="-3.407183000"><ele>418.2</ele><time>2013-05-11T11:03:10Z</time></trkpt>
<trkpt lat="55.447628000" lon="-3.407019000"><ele>421.3</ele><time>2013-05-11T11:03:24Z</time></trkpt>
<trkpt lat="55.447602000" lon="-3.406863000"><ele>423.6</ele><time>2013-05-11T11:03:39Z</time></trkpt>
<trkpt lat="55.447596000" lon="-3.406696000"><ele>426.0</ele><time>2013-05-11T11:03:50Z</time></trkpt>
<trkpt lat="55.447597000" lon="-3.406529000"><ele>428.4</ele><time>2013-05-11T11:04:04Z</time></trkpt>
<trkpt lat="55.447570000" lon="-3.406367000"><ele>430.7</ele><time>2013-05-11T11:04:18Z</time></trkpt>
<trkpt lat="55.447519000" lon="-3.406236000"><ele>433.1</ele><time>2013-05-11T11:04:30Z</time></trkpt>
<trkpt lat="55.447467000" lon="-3.406103000"><ele>433.9</ele><time>2013-05-11T11:04:46Z</time></trkpt>
<trkpt lat="55.447386000" lon="-3.406015000"><ele>435.6</ele><time>2013-05-11T11:05:01Z</time></trkpt>
<trkpt lat="55.447312000" lon="-3.405924000"><ele>438.4</ele><time>2013-05-11T11:05:17Z</time></trkpt>
<trkpt lat="55.447267000" lon="-3.405772000"><ele>441.1</ele><time>2013-05-11T11:05:33Z</time></trkpt>
<trkpt lat="55.447235000" lon="-3.405617000"><ele>443.8</ele><time>2013-05-11T11:05:45Z</time></trkpt>
<trkpt lat="55.447194000" lon="-3.405474000"><ele>446.5</ele><time>2013-05-11T11:06:00Z</time></trkpt>
<trkpt lat="55.447154000" lon="-3.405328000"><ele>448.5</ele><time>2013-05-11T11:06:38Z</time></trkpt>
<trkpt lat="55.447108000" lon="-3.405181000"><ele>451.0</ele><time>2013-05-11T11:06:51Z</time></trkpt>
<trkpt lat="55.447075000" lon="-3.405033000"><ele>453.5</ele><time>2013-05-11T11:07:02Z</time></trkpt>
<trkpt lat="55.447035000" lon="-3.404881000"><ele>456.1</ele><time>2013-05-11T11:07:17Z</time></trkpt>
<trkpt lat="55.446990000" lon="-3.404734000"><ele>458.6</ele><time>2013-05-11T11:07:33Z</time></trkpt>
<trkpt lat="55.446945000" lon="-3.404597000"><ele>461.2</ele><time>2013-05-11T11:07:44Z</time></trkpt>
<trkpt lat="55.446898000" lon="-3.404461000"><ele>463.5</ele><time>2013-05-11T11:07:58Z</time></trkpt>
<trkpt lat="55.446854000" lon="-3.404315000"><ele>464.7</ele><time>2013-05-11T11:08:13Z</time></trkpt>
<trkpt lat="55.446813000" lon="-3.404166000"><ele>466.0</ele><time>2013-05-11T11:08:26Z</time></trkpt>
<trkpt lat="55.446753000" lon="-3.404032000"><ele>467.3</ele><time>2013-05-11T11:08:40Z</time></trkpt>
<trkpt lat="55.446716000" lon="-3.403884000"><ele>468.5</ele><time>2013-05-11T11:08:51Z</time></trkpt>
<trkpt lat="55.446685000" lon="-3.403721000"><ele>469.8</ele><time>2013-05-11T11:09:00Z</time></trkpt>
<trkpt lat="55.446630000" lon="-3.403590000"><ele>470.5</ele><time>2013-05-11T11:09:10Z</time></trkpt>
<trkpt lat="55.446573000" lon="-3.403448000"><ele>471.6</ele><time>2013-05-11T11:09:21Z</time></trkpt>
<trkpt lat="55.446550000" lon="-3.403287000"><ele>472.8</ele><time>2013-05-11T11:09:32Z</time></trkpt>
<trkpt lat="55.446526000" lon="-3.403131000"><ele>474.0</ele><time>2013-05-11T11:09:46Z</time></trkpt>
<trkpt lat="55.446517000" lon="-3.402967000"><ele>475.2</ele><time>2013-05-11T11:10:03Z</time></trkpt>
<trkpt lat="55.446497000" lon="-3.402805000"><ele>475.7</ele><time>2013-05-11T11:10:18Z</time></trkpt>
<trkpt lat="55.446443000" lon="-3.402667000"><ele>476.9</ele><time>2013-05-11T11:10:33Z</time></trkpt>
<trkpt lat="55.446396000" lon="-3.402522000"><ele>478.1</ele><time>2013-05-11T11:10:45Z</time></trkpt>
<trkpt lat="55.446349000" lon="-3.402377000"><ele>479.3</ele><time>2013-05-11T11:10:56Z</time></trkpt>
<trkpt lat="55.446297000" lon="-3.402228000"><ele>480.5</ele><time>2013-05-11T11:11:09Z</time></trkpt>
<trkpt lat="55.446316000" lon="-3.402070000"><ele>481.3</ele><time>2013-05-11T11:11:21Z</time></trkpt>
<trkpt lat="55.446332000" lon="-3.401904000"><ele>482.1</ele><time>2013-05-11T11:11:34Z</time></trkpt>
<trkpt lat="55.446386000" lon="-3.401750000"><ele>482.4</ele><time>2013-05-11T11:11:47Z</time></trkpt>
<trkpt lat="55.446423000" lon="-3.401604000"><ele>482.6</ele><time>2013-05-11T11:12:00Z</time></trkpt>
<trkpt lat="55.446369000" lon="-3.401474000"><ele>482.9</ele><time>2013-05-11T11:13:49Z</time></trkpt>
<trkpt lat="55.446275000" lon="-3.401437000"><ele>483.5</ele><time>2013-05-11T11:13:56Z</time></trkpt>
<trkpt lat="55.446190000" lon="-3.401373000"><ele>484.0</ele><time>2013-05-11T11:14:03Z</time></trkpt>
<trkpt lat="55.446103000" lon="-3.401329000"><ele>483.9</ele><time>2013-05-11T11:14:10Z</time></trkpt>
<trkpt lat="55.446018000" lon="-3.401268000"><ele>483.8</ele><time>2013-05-11T11:14:18Z</time></trkpt>
<trkpt lat="55.445926000" lon="-3.401211000"><ele>483.7</ele><time>2013-05-11T11:14:27Z</time></trkpt>
<trkpt lat="55.445843000" lon="-3.401105000"><ele>483.6</ele><time>2013-05-11T11:14:35Z</time></trkpt>
<trkpt lat="55.445785000" lon="-3.400962000"><ele>484.2</ele><time>2013-05-11T11:14:44Z</time></trkpt>
<trkpt lat="55.445741000" lon="-3.400805000"><ele>484.2</ele><time>2013-05-11T11:14:51Z</time></trkpt>
<trkpt lat="55.445677000" lon="-3.400679000"><ele>484.2</ele><time>2013-05-11T11:14:58Z</time></trkpt>
<trkpt lat="55.445632000" lon="-3.400531000"><ele>484.2</ele><time>2013-05-11T11:15:06Z</time></trkpt>
<trkpt lat="55.445559000" lon="-3.400407000"><ele>484.2</ele><time>2013-05-11T11:15:15Z</time></trkpt>
<trkpt lat="55.445495000" lon="-3.400288000"><ele>483.9</ele><time>2013-05-11T11:15:23Z</time></trkpt>
<trkpt lat="55.445434000" lon="-3.400159000"><ele>483.6</ele><time>2013-05-11T11:15:32Z</time></trkpt>
<trkpt lat="55.445341000" lon="-3.400103000"><ele>483.4</ele><time>2013-05-11T11:15:39Z</time></trkpt>
<trkpt lat="55.445261000" lon="-3.399997000"><ele>483.1</ele><time>2013-05-11T11:15:47Z</time></trkpt>
<trkpt lat="55.445176000" lon="-3.399901000"><ele>483.2</ele><time>2013-05-11T11:15:54Z</time></trkpt>
<trkpt lat="55.445096000" lon="-3.399800000"><ele>483.3</ele><time>2013-05-11T11:16:02Z</time></trkpt>
<trkpt lat="55.445017000" lon="-3.399692000"><ele>483.1</ele><time>2013-05-11T11:16:09Z</time></trkpt>
<trkpt lat="55.444933000" lon="-3.399607000"><ele>483.2</ele><time>2013-05-11T11:16:15Z</time></trkpt>
<trkpt lat="55.444860000" lon="-3.399504000"><ele>483.3</ele><time>2013-05-11T11:16:23Z</time></trkpt>
<trkpt lat="55.444792000" lon="-3.399386000"><ele>483.4</ele><time>2013-05-11T11:16:31Z</time></trkpt>
<trkpt lat="55.444739000" lon="-3.399256000"><ele>483.5</ele><time>2013-05-11T11:16:39Z</time></trkpt>
<trkpt lat="55.444653000" lon="-3.399173000"><ele>483.5</ele><time>2013-05-11T11:16:48Z</time></trkpt>
<trkpt lat="55.444568000" lon="-3.399098000"><ele>483.6</ele><time>2013-05-11T11:16:58Z</time></trkpt>
<trkpt lat="55.444476000" lon="-3.399046000"><ele>483.7</ele><time>2013-05-11T11:17:08Z</time></trkpt>
<trkpt lat="55.444382000" lon="-3.398990000"><ele>484.8</ele><time>2013-05-11T11:17:18Z</time></trkpt>
<trkpt lat="55.444295000" lon="-3.398944000"><ele>485.5</ele><time>2013-05-11T11:17:28Z</time></trkpt>
<trkpt lat="55.444202000" lon="-3.398901000"><ele>486.3</ele><time>2013-05-11T11:17:40Z</time></trkpt>
<trkpt lat="55.444137000" lon="-3.398791000"><ele>487.0</ele><time>2013-05-11T11:17:50Z</time></trkpt>
<trkpt lat="55.444066000" lon="-3.398690000"><ele>488.0</ele><time>2013-05-11T11:18:03Z</time></trkpt>
<trkpt lat="55.444025000" lon="-3.398547000"><ele>489.8</ele><time>2013-05-11T11:18:12Z</time></trkpt>
<trkpt lat="55.443973000" lon="-3.398412000"><ele>491.6</ele><time>2013-05-11T11:18:23Z</time></trkpt>
<trkpt lat="55.443921000" lon="-3.398265000"><ele>493.5</ele><time>2013-05-11T11:18:34Z</time></trkpt>
<trkpt lat="55.443854000" lon="-3.398153000"><ele>495.5</ele><time>2013-05-11T11:18:44Z</time></trkpt>
<trkpt lat="55.443812000" lon="-3.398013000"><ele>497.5</ele><time>2013-05-11T11:18:55Z</time></trkpt>
<trkpt lat="55.443816000" lon="-3.397841000"><ele>499.5</ele><time>2013-05-11T11:19:08Z</time></trkpt>
<trkpt lat="55.443827000" lon="-3.397683000"><ele>501.6</ele><time>2013-05-11T11:19:20Z</time></trkpt>
<trkpt lat="55.443777000" lon="-3.397546000"><ele>503.8</ele><time>2013-05-11T11:19:31Z</time></trkpt>
<trkpt lat="55.443716000" lon="-3.397428000"><ele>506.0</ele><time>2013-05-11T11:19:41Z</time></trkpt>
<trkpt lat="55.443683000" lon="-3.397276000"><ele>508.2</ele><time>2013-05-11T11:19:51Z</time></trkpt>
<trkpt lat="55.443674000" lon="-3.397106000"><ele>510.4</ele><time>2013-05-11T11:20:05Z</time></trkpt>
<trkpt lat="55.443669000" lon="-3.396944000"><ele>513.2</ele><time>2013-05-11T11:20:25Z</time></trkpt>
<trkpt lat="55.443687000" lon="-3.396776000"><ele>516.0</ele><time>2013-05-11T11:21:04Z</time></trkpt>
<trkpt lat="55.443721000" lon="-3.396603000"><ele>518.8</ele><time>2013-05-11T11:21:27Z</time></trkpt>
<trkpt lat="55.443732000" lon="-3.396435000"><ele>521.5</ele><time>2013-05-11T11:21:49Z</time></trkpt>
<trkpt lat="55.443751000" lon="-3.396279000"><ele>524.1</ele><time>2013-05-11T11:22:01Z</time></trkpt>
<trkpt lat="55.443746000" lon="-3.396120000"><ele>528.3</ele><time>2013-05-11T11:22:13Z</time></trkpt>
<trkpt lat="55.443729000" lon="-3.395963000"><ele>531.3</ele><time>2013-05-11T11:22:34Z</time></trkpt>
<trkpt lat="55.443748000" lon="-3.395747000"><ele>534.3</ele><time>2013-05-11T11:23:40Z</time></trkpt>
<trkpt lat="55.443712000" lon="-3.395596000"><ele>537.3</ele><time>2013-05-11T11:23:56Z</time></trkpt>
<trkpt lat="55.443683000" lon="-3.395433000"><ele>540.3</ele><time>2013-05-11T11:24:13Z</time></trkpt>
<trkpt lat="55.443678000" lon="-3.395270000"><ele>544.0</ele><time>2013-05-11T11:24:29Z</time></trkpt>
<trkpt lat="55.443653000" lon="-3.395117000"><ele>546.3</ele><time>2013-05-11T11:24:47Z</time></trkpt>
<trkpt lat="55.443619000" lon="-3.394962000"><ele>548.5</ele><time>2013-05-11T11:25:03Z</time></trkpt>
<trkpt lat="55.443575000" lon="-3.394822000"><ele>550.8</ele><time>2013-05-11T11:25:21Z</time></trkpt>
<trkpt lat="55.443561000" lon="-3.394656000"><ele>553.1</ele><time>2013-05-11T11:25:36Z</time></trkpt>
<trkpt lat="55.443526000" lon="-3.394492000"><ele>556.1</ele><time>2013-05-11T11:25:58Z</time></trkpt>
<trkpt lat="55.443500000" lon="-3.394337000"><ele>557.5</ele><time>2013-05-11T11:26:08Z</time></trkpt>
<trkpt lat="55.443467000" lon="-3.394187000"><ele>559.0</ele><time>2013-05-11T11:26:20Z</time></trkpt>
<trkpt lat="55.443458000" lon="-3.394029000"><ele>560.5</ele><time>2013-05-11T11:26:34Z</time></trkpt>
<trkpt lat="55.443446000" lon="-3.393862000"><ele>561.9</ele><time>2013-05-11T11:26:45Z</time></trkpt>
<trkpt lat="55.443449000" lon="-3.393703000"><ele>563.4</ele><time>2013-05-11T11:26:56Z</time></trkpt>
<trkpt lat="55.443430000" lon="-3.393536000"><ele>565.0</ele><time>2013-05-11T11:27:08Z</time></trkpt>
<trkpt lat="55.443393000" lon="-3.393382000"><ele>566.6</ele><time>2013-05-11T11:27:20Z</time></trkpt>
<trkpt lat="55.443330000" lon="-3.393266000"><ele>568.3</ele><time>2013-05-11T11:27:31Z</time></trkpt>
<trkpt lat="55.443326000" lon="-3.393097000"><ele>569.9</ele><time>2013-05-11T11:27:44Z</time></trkpt>
<trkpt lat="55.443321000" lon="-3.392939000"><ele>571.5</ele><time>2013-05-11T11:27:56Z</time></trkpt>
<trkpt lat="55.443304000" lon="-3.392771000"><ele>572.5</ele><time>2013-05-11T11:28:13Z</time></trkpt>
<trkpt lat="55.443278000" lon="-3.392618000"><ele>574.4</ele><time>2013-05-11T11:28:26Z</time></trkpt>
<trkpt lat="55.443234000" lon="-3.392476000"><ele>576.3</ele><time>2013-05-11T11:28:40Z</time></trkpt>
<trkpt lat="55.443195000" lon="-3.392326000"><ele>578.2</ele><time>2013-05-11T11:28:52Z</time></trkpt>
<trkpt lat="55.443188000" lon="-3.392155000"><ele>580.1</ele><time>2013-05-11T11:29:05Z</time></trkpt>
<trkpt lat="55.443168000" lon="-3.391991000"><ele>582.0</ele><time>2013-05-11T11:29:20Z</time></trkpt>
<trkpt lat="55.443123000" lon="-3.391842000"><ele>584.0</ele><time>2013-05-11T11:29:40Z</time></trkpt>
<trkpt lat="55.443079000" lon="-3.391692000"><ele>586.4</ele><time>2013-05-11T11:29:57Z</time></trkpt>
<trkpt lat="55.443048000" lon="-3.391539000"><ele>588.7</ele><time>2013-05-11T11:30:12Z</time></trkpt>
<trkpt lat="55.443019000" lon="-3.391378000"><ele>590.7</ele><time>2013-05-11T11:30:31Z</time></trkpt>
<trkpt lat="55.442994000" lon="-3.391224000"><ele>593.1</ele><time>2013-05-11T11:30:49Z</time></trkpt>
<trkpt lat="55.442961000" lon="-3.391070000"><ele>596.3</ele><time>2013-05-11T11:31:07Z</time></trkpt>
<trkpt lat="55.442924000" lon="-3.390925000"><ele>598.5</ele><time>2013-05-11T11:31:24Z</time></trkpt>
<trkpt lat="55.442916000" lon="-3.390762000"><ele>600.6</ele><time>2013-05-11T11:32:02Z</time></trkpt>
<trkpt lat="55.442937000" lon="-3.390605000"><ele>602.8</ele><time>2013-05-11T11:32:14Z</time></trkpt>
<trkpt lat="55.442919000" lon="-3.390448000"><ele>605.0</ele><time>2013-05-11T11:32:29Z</time></trkpt>
<trkpt lat="55.442914000" lon="-3.390281000"><ele>608.3</ele><time>2013-05-11T11:32:43Z</time></trkpt>
<trkpt lat="55.442913000" lon="-3.390112000"><ele>610.5</ele><time>2013-05-11T11:32:55Z</time></trkpt>
<trkpt lat="55.442923000" lon="-3.389948000"><ele>612.5</ele><time>2013-05-11T11:33:08Z</time></trkpt>
<trkpt lat="55.442917000" lon="-3.389779000"><ele>614.1</ele><time>2013-05-11T11:33:24Z</time></trkpt>
<trkpt lat="55.442916000" lon="-3.389615000"><ele>616.1</ele><time>2013-05-11T11:33:41Z</time></trkpt>
<trkpt lat="55.442893000" lon="-3.389458000"><ele>618.6</ele><time>2013-05-11T11:33:58Z</time></trkpt>
<trkpt lat="55.442889000" lon="-3.389292000"><ele>620.4</ele><time>2013-05-11T11:34:12Z</time></trkpt>
<trkpt lat="55.442930000" lon="-3.389140000"><ele>622.1</ele><time>2013-05-11T11:35:28Z</time></trkpt>
<trkpt lat="55.442959000" lon="-3.388987000"><ele>623.8</ele><time>2013-05-11T11:35:39Z</time></trkpt>
<trkpt lat="55.442993000" lon="-3.388832000"><ele>625.5</ele><time>2013-05-11T11:35:50Z</time></trkpt>
<trkpt lat="55.443010000" lon="-3.388665000"><ele>627.8</ele><time>2013-05-11T11:36:02Z</time></trkpt>
<trkpt lat="55.443011000" lon="-3.388503000"><ele>630.2</ele><time>2013-05-11T11:36:14Z</time></trkpt>
<trkpt lat="55.443009000" lon="-3.388336000"><ele>632.5</ele><time>2013-05-11T11:36:25Z</time></trkpt>
<trkpt lat="55.442997000" lon="-3.388177000"><ele>634.9</ele><time>2013-05-11T11:36:36Z</time></trkpt>
<trkpt lat="55.442955000" lon="-3.388032000"><ele>637.5</ele><time>2013-05-11T11:36:52Z</time></trkpt>
<trkpt lat="55.442904000" lon="-3.387893000"><ele>640.2</ele><time>2013-05-11T11:37:07Z</time></trkpt>
<trkpt lat="55.442859000" lon="-3.387755000"><ele>641.9</ele><time>2013-05-11T11:37:22Z</time></trkpt>
<trkpt lat="55.442809000" lon="-3.387618000"><ele>644.9</ele><time>2013-05-11T11:37:40Z</time></trkpt>
<trkpt lat="55.442764000" lon="-3.387469000"><ele>647.9</ele><time>2013-05-11T11:38:05Z</time></trkpt>
<trkpt lat="55.442704000" lon="-3.387346000"><ele>650.9</ele><time>2013-05-11T11:38:20Z</time></trkpt>
<trkpt lat="55.442657000" lon="-3.387198000"><ele>653.9</ele><time>2013-05-11T11:38:36Z</time></trkpt>
<trkpt lat="55.442618000" lon="-3.387049000"><ele>656.4</ele><time>2013-05-11T11:38:53Z</time></trkpt>
<trkpt lat="55.442596000" lon="-3.386883000"><ele>658.3</ele><time>2013-05-11T11:39:44Z</time></trkpt>
<trkpt lat="55.442553000" lon="-3.386741000"><ele>660.2</ele><time>2013-05-11T11:39:59Z</time></trkpt>
<trkpt lat="55.442510000" lon="-3.386597000"><ele>662.1</ele><time>2013-05-11T11:40:14Z</time></trkpt>
<trkpt lat="55.442466000" lon="-3.386449000"><ele>664.0</ele><time>2013-05-11T11:40:30Z</time></trkpt>
<trkpt lat="55.442437000" lon="-3.386299000"><ele>665.9</ele><time>2013-05-11T11:40:50Z</time></trkpt>
<trkpt lat="55.442396000" lon="-3.386145000"><ele>667.8</ele><time>2013-05-11T11:41:04Z</time></trkpt>
<trkpt lat="55.442364000" lon="-3.385989000"><ele>669.2</ele><time>2013-05-11T11:41:17Z</time></trkpt>
<trkpt lat="55.442325000" lon="-3.385835000"><ele>670.5</ele><time>2013-05-11T11:41:30Z</time></trkpt>
<trkpt lat="55.442297000" lon="-3.385682000"><ele>672.5</ele><time>2013-05-11T11:41:41Z</time></trkpt>
<trkpt lat="55.442257000" lon="-3.385530000"><ele>674.4</ele><time>2013-05-11T11:41:58Z</time></trkpt>
<trkpt lat="55.442204000" lon="-3.385393000"><ele>676.3</ele><time>2013-05-11T11:42:09Z</time></trkpt>
<trkpt lat="55.442162000" lon="-3.385245000"><ele>678.0</ele><time>2013-05-11T11:42:19Z</time></trkpt>
<trkpt lat="55.442125000" lon="-3.385095000"><ele>679.7</ele><time>2013-05-11T11:42:29Z</time></trkpt>
<trkpt lat="55.442094000" lon="-3.384940000"><ele>681.5</ele><time>2013-05-11T11:42:37Z</time></trkpt>
<trkpt lat="55.442072000" lon="-3.384772000"><ele>683.2</ele><time>2013-05-11T11:42:47Z</time></trkpt>
<trkpt lat="55.442067000" lon="-3.384611000"><ele>684.9</ele><time>2013-05-11T11:42:55Z</time></trkpt>
<trkpt lat="55.442046000" lon="-3.384438000"><ele>687.1</ele><time>2013-05-11T11:43:05Z</time></trkpt>
<trkpt lat="55.442045000" lon="-3.384276000"><ele>688.5</ele><time>2013-05-11T11:43:14Z</time></trkpt>
<trkpt lat="55.442037000" lon="-3.384109000"><ele>690.0</ele><time>2013-05-11T11:43:23Z</time></trkpt>
<trkpt lat="55.442028000" lon="-3.383939000"><ele>690.9</ele><time>2013-05-11T11:43:32Z</time></trkpt>
<trkpt lat="55.442021000" lon="-3.383773000"><ele>691.8</ele><time>2013-05-11T11:43:41Z</time></trkpt>
<trkpt lat="55.442008000" lon="-3.383610000"><ele>692.7</ele><time>2013-05-11T11:43:50Z</time></trkpt>
<trkpt lat="55.442013000" lon="-3.383438000"><ele>693.1</ele><time>2013-05-11T11:43:59Z</time></trkpt>
<trkpt lat="55.442003000" lon="-3.383278000"><ele>693.5</ele><time>2013-05-11T11:44:09Z</time></trkpt>
<trkpt lat="55.441938000" lon="-3.383156000"><ele>693.8</ele><time>2013-05-11T11:44:19Z</time></trkpt>
<trkpt lat="55.441900000" lon="-3.382983000"><ele>694.2</ele><time>2013-05-11T11:44:49Z</time></trkpt>
<trkpt lat="55.441904000" lon="-3.382820000"><ele>694.5</ele><time>2013-05-11T11:44:57Z</time></trkpt>
<trkpt lat="55.441870000" lon="-3.382670000"><ele>694.5</ele><time>2013-05-11T11:45:06Z</time></trkpt>
<trkpt lat="55.441777000" lon="-3.382637000"><ele>694.5</ele><time>2013-05-11T11:45:13Z</time></trkpt>
<trkpt lat="55.441687000" lon="-3.382588000"><ele>694.5</ele><time>2013-05-11T11:45:20Z</time></trkpt>
<trkpt lat="55.441586000" lon="-3.382604000"><ele>693.3</ele><time>2013-05-11T11:45:28Z</time></trkpt>
<trkpt lat="55.441489000" lon="-3.382585000"><ele>692.1</ele><time>2013-05-11T11:45:37Z</time></trkpt>
<trkpt lat="55.441431000" lon="-3.382712000"><ele>690.9</ele><time>2013-05-11T11:45:46Z</time></trkpt>
<trkpt lat="55.441359000" lon="-3.382836000"><ele>689.8</ele><time>2013-05-11T11:45:54Z</time></trkpt>
<trkpt lat="55.441298000" lon="-3.382983000"><ele>688.7</ele><time>2013-05-11T11:46:02Z</time></trkpt>
<trkpt lat="55.441242000" lon="-3.383123000"><ele>687.6</ele><time>2013-05-11T11:46:10Z</time></trkpt>
<trkpt lat="55.441168000" lon="-3.383001000"><ele>686.5</ele><time>2013-05-11T11:48:24Z</time></trkpt>
<trkpt lat="55.441112000" lon="-3.382863000"><ele>685.5</ele><time>2013-05-11T11:49:22Z</time></trkpt>
<trkpt lat="55.441117000" lon="-3.382684000"><ele>684.3</ele><time>2013-05-11T11:49:29Z</time></trkpt>
<trkpt lat="55.441104000" lon="-3.382510000"><ele>683.0</ele><time>2013-05-11T11:49:37Z</time></trkpt>
<trkpt lat="55.441104000" lon="-3.382342000"><ele>681.7</ele><time>2013-05-11T11:49:45Z</time></trkpt>
<trkpt lat="55.441114000" lon="-3.382183000"><ele>681.6</ele><time>2013-05-11T11:49:52Z</time></trkpt>
<trkpt lat="55.441117000" lon="-3.382024000"><ele>681.5</ele><time>2013-05-11T11:49:59Z</time></trkpt>
<trkpt lat="55.441107000" lon="-3.381850000"><ele>680.9</ele><time>2013-05-11T11:50:07Z</time></trkpt>
<trkpt lat="55.441048000" lon="-3.381724000"><ele>680.3</ele><time>2013-05-11T11:50:15Z</time></trkpt>
<trkpt lat="55.441046000" lon="-3.381550000"><ele>679.6</ele><time>2013-05-11T11:50:22Z</time></trkpt>
<trkpt lat="55.441045000" lon="-3.381387000"><ele>679.0</ele><time>2013-05-11T11:50:30Z</time></trkpt>
<trkpt lat="55.441042000" lon="-3.381217000"><ele>678.4</ele><time>2013-05-11T11:50:38Z</time></trkpt>
<trkpt lat="55.441024000" lon="-3.381057000"><ele>677.7</ele><time>2013-05-11T11:51:04Z</time></trkpt>
<trkpt lat="55.440953000" lon="-3.380951000"><ele>676.6</ele><time>2013-05-11T11:51:11Z</time></trkpt>
<trkpt lat="55.440892000" lon="-3.380819000"><ele>675.5</ele><time>2013-05-11T11:51:20Z</time></trkpt>
<trkpt lat="55.440884000" lon="-3.380660000"><ele>674.5</ele><time>2013-05-11T11:51:28Z</time></trkpt>
<trkpt lat="55.440866000" lon="-3.380494000"><ele>671.3</ele><time>2013-05-11T11:51:37Z</time></trkpt>
<trkpt lat="55.440816000" lon="-3.380355000"><ele>668.1</ele><time>2013-05-11T11:51:50Z</time></trkpt>
<trkpt lat="55.440740000" lon="-3.380265000"><ele>665.5</ele><time>2013-05-11T11:52:00Z</time></trkpt>
<trkpt lat="55.440649000" lon="-3.380235000"><ele>662.8</ele><time>2013-05-11T11:52:10Z</time></trkpt>
<trkpt lat="55.440557000" lon="-3.380206000"><ele>660.2</ele><time>2013-05-11T11:52:40Z</time></trkpt>
<trkpt lat="55.440466000" lon="-3.380224000"><ele>657.5</ele><time>2013-05-11T11:52:57Z</time></trkpt>
<trkpt lat="55.440374000" lon="-3.380217000"><ele>654.9</ele><time>2013-05-11T11:53:05Z</time></trkpt>
<trkpt lat="55.440278000" lon="-3.380167000"><ele>652.3</ele><time>2013-05-11T11:53:14Z</time></trkpt>
<trkpt lat="55.440181000" lon="-3.380156000"><ele>650.2</ele><time>2013-05-11T11:53:25Z</time></trkpt>
<trkpt lat="55.440091000" lon="-3.380137000"><ele>646.0</ele><time>2013-05-11T11:53:33Z</time></trkpt>
<trkpt lat="55.439998000" lon="-3.380134000"><ele>641.8</ele><time>2013-05-11T11:53:41Z</time></trkpt>
<trkpt lat="55.439898000" lon="-3.380130000"><ele>639.7</ele><time>2013-05-11T11:53:50Z</time></trkpt>
<trkpt lat="55.439801000" lon="-3.380124000"><ele>637.6</ele><time>2013-05-11T11:54:20Z</time></trkpt>
<trkpt lat="55.439708000" lon="-3.380098000"><ele>635.5</ele><time>2013-05-11T11:54:31Z</time></trkpt>
<trkpt lat="55.439615000" lon="-3.380042000"><ele>633.5</ele><time>2013-05-11T11:54:41Z</time></trkpt>
<trkpt lat="55.439519000" lon="-3.379992000"><ele>631.4</ele><time>2013-05-11T11:54:52Z</time></trkpt>
<trkpt lat="55.439428000" lon="-3.379965000"><ele>629.3</ele><time>2013-05-11T11:55:00Z</time></trkpt>
<trkpt lat="55.439331000" lon="-3.380016000"><ele>627.2</ele><time>2013-05-11T11:55:09Z</time></trkpt>
<trkpt lat="55.439237000" lon="-3.379978000"><ele>625.1</ele><time>2013-05-11T11:55:15Z</time></trkpt>
<trkpt lat="55.439141000" lon="-3.379932000"><ele>621.7</ele><time>2013-05-11T11:55:28Z</time></trkpt>
<trkpt lat="55.439048000" lon="-3.379904000"><ele>620.5</ele><time>2013-05-11T11:55:35Z</time></trkpt>
<trkpt lat="55.438952000" lon="-3.379891000"><ele>619.2</ele><time>2013-05-11T11:55:42Z</time></trkpt>
<trkpt lat="55.438858000" lon="-3.379848000"><ele>617.9</ele><time>2013-05-11T11:55:49Z</time></trkpt>
<trkpt lat="55.438756000" lon="-3.379840000"><ele>616.6</ele><time>2013-05-11T11:55:56Z</time></trkpt>
<trkpt lat="55.438666000" lon="-3.379813000"><ele>615.4</ele><time>2013-05-11T11:56:03Z</time></trkpt>
<trkpt lat="55.438575000" lon="-3.379771000"><ele>614.1</ele><time>2013-05-11T11:56:10Z</time></trkpt>
<trkpt lat="55.438480000" lon="-3.379762000"><ele>612.8</ele><time>2013-05-11T11:56:18Z</time></trkpt>
<trkpt lat="55.438389000" lon="-3.379751000"><ele>611.2</ele><time>2013-05-11T11:56:25Z</time></trkpt>
<trkpt lat="55.438299000" lon="-3.379701000"><ele>609.5</ele><time>2013-05-11T11:56:32Z</time></trkpt>
<trkpt lat="55.438213000" lon="-3.379645000"><ele>607.9</ele><time>2013-05-11T11:56:39Z</time></trkpt>
<trkpt lat="55.438111000" lon="-3.379650000"><ele>607.5</ele><time>2013-05-11T11:56:46Z</time></trkpt>
<trkpt lat="55.438018000" lon="-3.379623000"><ele>607.2</ele><time>2013-05-11T11:56:53Z</time></trkpt>
<trkpt lat="55.437919000" lon="-3.379576000"><ele>606.8</ele><time>2013-05-11T11:57:02Z</time></trkpt>
<trkpt lat="55.437823000" lon="-3.379536000"><ele>606.5</ele><time>2013-05-11T11:57:09Z</time></trkpt>
<trkpt lat="55.437728000" lon="-3.379556000"><ele>606.1</ele><time>2013-05-11T11:57:16Z</time></trkpt>
<trkpt lat="55.437625000" lon="-3.379542000"><ele>605.7</ele><time>2013-05-11T11:57:24Z</time></trkpt>
<trkpt lat="55.437535000" lon="-3.379573000"><ele>605.4</ele><time>2013-05-11T11:57:30Z</time></trkpt>
<trkpt lat="55.437439000" lon="-3.379573000"><ele>605.0</ele><time>2013-05-11T11:57:39Z</time></trkpt>
<trkpt lat="55.437337000" lon="-3.379570000"><ele>605.0</ele><time>2013-05-11T11:57:46Z</time></trkpt>
<trkpt lat="55.437238000" lon="-3.379626000"><ele>605.0</ele><time>2013-05-11T11:57:54Z</time></trkpt>
<trkpt lat="55.437152000" lon="-3.379709000"><ele>605.0</ele><time>2013-05-11T11:58:01Z</time></trkpt>
<trkpt lat="55.437061000" lon="-3.379789000"><ele>605.0</ele><time>2013-05-11T11:58:09Z</time></trkpt>
<trkpt lat="55.436977000" lon="-3.379867000"><ele>605.0</ele><time>2013-05-11T11:58:16Z</time></trkpt>
<trkpt lat="55.436895000" lon="-3.379932000"><ele>605.2</ele><time>2013-05-11T11:58:24Z</time></trkpt>
<trkpt lat="55.436815000" lon="-3.380018000"><ele>605.4</ele><time>2013-05-11T11:58:31Z</time></trkpt>
<trkpt lat="55.436739000" lon="-3.380101000"><ele>605.5</ele><time>2013-05-11T11:58:38Z</time></trkpt>
<trkpt lat="55.436658000" lon="-3.380195000"><ele>605.6</ele><time>2013-05-11T11:58:45Z</time></trkpt>
<trkpt lat="55.436588000" lon="-3.380295000"><ele>605.7</ele><time>2013-05-11T11:58:51Z</time></trkpt>
<trkpt lat="55.436502000" lon="-3.380380000"><ele>605.8</ele><time>2013-05-11T11:58:58Z</time></trkpt>
<trkpt lat="55.436417000" lon="-3.380461000"><ele>605.9</ele><time>2013-05-11T11:59:04Z</time></trkpt>
<trkpt lat="55.436324000" lon="-3.380513000"><ele>606.0</ele><time>2013-05-11T11:59:12Z</time></trkpt>
<trkpt lat="55.436244000" lon="-3.380607000"><ele>606.4</ele><time>2013-05-11T11:59:20Z</time></trkpt>
<trkpt lat="55.436163000" lon="-3.380696000"><ele>606.7</ele><time>2013-05-11T11:59:30Z</time></trkpt>
<trkpt lat="55.436074000" lon="-3.380774000"><ele>607.1</ele><time>2013-05-11T11:59:38Z</time></trkpt>
<trkpt lat="55.436002000" lon="-3.380878000"><ele>607.3</ele><time>2013-05-11T12:00:51Z</time></trkpt>
<trkpt lat="55.435995000" lon="-3.381045000"><ele>607.5</ele><time>2013-05-11T12:00:59Z</time></trkpt>
<trkpt lat="55.435980000" lon="-3.381202000"><ele>607.5</ele><time>2013-05-11T12:01:07Z</time></trkpt>
<trkpt lat="55.435983000" lon="-3.381363000"><ele>607.7</ele><time>2013-05-11T12:01:15Z</time></trkpt>
<trkpt lat="55.435968000" lon="-3.381530000"><ele>607.9</ele><time>2013-05-11T12:01:23Z</time></trkpt>
<trkpt lat="55.435967000" lon="-3.381706000"><ele>608.1</ele><time>2013-05-11T12:01:33Z</time></trkpt>
<trkpt lat="55.435968000" lon="-3.381879000"><ele>608.3</ele><time>2013-05-11T12:01:42Z</time></trkpt>
<trkpt lat="55.435960000" lon="-3.382046000"><ele>608.5</ele><time>2013-05-11T12:02:43Z</time></trkpt>
<trkpt lat="55.435921000" lon="-3.382203000"><ele>608.4</ele><time>2013-05-11T12:02:51Z</time></trkpt>
<trkpt lat="55.435840000" lon="-3.382278000"><ele>607.6</ele><time>2013-05-11T12:03:27Z</time></trkpt>
<trkpt lat="55.435747000" lon="-3.382253000"><ele>606.9</ele><time>2013-05-11T12:03:38Z</time></trkpt>
<trkpt lat="55.435659000" lon="-3.382215000"><ele>606.2</ele><time>2013-05-11T12:03:52Z</time></trkpt>
<trkpt lat="55.435571000" lon="-3.382181000"><ele>605.5</ele><time>2013-05-11T12:04:00Z</time></trkpt>
<trkpt lat="55.435481000" lon="-3.382159000"><ele>604.7</ele><time>2013-05-11T12:04:07Z</time></trkpt>
<trkpt lat="55.435385000" lon="-3.382152000"><ele>604.0</ele><time>2013-05-11T12:04:15Z</time></trkpt>
<trkpt lat="55.435284000" lon="-3.382142000"><ele>603.3</ele><time>2013-05-11T12:04:25Z</time></trkpt>
<trkpt lat="55.435189000" lon="-3.382152000"><ele>602.5</ele><time>2013-05-11T12:04:33Z</time></trkpt>
<trkpt lat="55.435123000" lon="-3.382038000"><ele>601.8</ele><time>2013-05-11T12:04:41Z</time></trkpt>
<trkpt lat="55.435041000" lon="-3.381955000"><ele>599.1</ele><time>2013-05-11T12:04:49Z</time></trkpt>
<trkpt lat="55.434960000" lon="-3.381877000"><ele>596.4</ele><time>2013-05-11T12:05:09Z</time></trkpt>
<trkpt lat="55.434894000" lon="-3.381750000"><ele>594.3</ele><time>2013-05-11T12:05:43Z</time></trkpt>
<trkpt lat="55.434807000" lon="-3.381688000"><ele>592.2</ele><time>2013-05-11T12:06:06Z</time></trkpt>
<trkpt lat="55.434716000" lon="-3.381636000"><ele>590.1</ele><time>2013-05-11T12:06:14Z</time></trkpt>
<trkpt lat="55.434624000" lon="-3.381586000"><ele>588.0</ele><time>2013-05-11T12:06:23Z</time></trkpt>
<trkpt lat="55.434555000" lon="-3.381694000"><ele>586.0</ele><time>2013-05-11T12:06:35Z</time></trkpt>
<trkpt lat="55.434468000" lon="-3.381745000"><ele>584.0</ele><time>2013-05-11T12:06:42Z</time></trkpt>
<trkpt lat="55.434382000" lon="-3.381795000"><ele>582.0</ele><time>2013-05-11T12:06:50Z</time></trkpt>
<trkpt lat="55.434286000" lon="-3.381790000"><ele>580.0</ele><time>2013-05-11T12:08:09Z</time></trkpt>
<trkpt lat="55.434214000" lon="-3.381892000"><ele>577.5</ele><time>2013-05-11T12:08:20Z</time></trkpt>
<trkpt lat="55.434094000" lon="-3.381929000"><ele>577.1</ele><time>2013-05-11T12:08:30Z</time></trkpt>
<trkpt lat="55.434000000" lon="-3.381892000"><ele>576.6</ele><time>2013-05-11T12:08:49Z</time></trkpt>
<trkpt lat="55.433913000" lon="-3.381828000"><ele>576.2</ele><time>2013-05-11T12:09:14Z</time></trkpt>
<trkpt lat="55.433809000" lon="-3.381817000"><ele>575.2</ele><time>2013-05-11T12:09:52Z</time></trkpt>
<trkpt lat="55.433716000" lon="-3.381803000"><ele>574.2</ele><time>2013-05-11T12:10:14Z</time></trkpt>
<trkpt lat="55.433628000" lon="-3.381848000"><ele>573.2</ele><time>2013-05-11T12:10:27Z</time></trkpt>
<trkpt lat="55.433538000" lon="-3.381871000"><ele>572.2</ele><time>2013-05-11T12:10:40Z</time></trkpt>
<trkpt lat="55.433445000" lon="-3.381904000"><ele>571.2</ele><time>2013-05-11T12:10:49Z</time></trkpt>
<trkpt lat="55.433361000" lon="-3.381968000"><ele>570.5</ele><time>2013-05-11T12:11:00Z</time></trkpt>
<trkpt lat="55.433268000" lon="-3.382017000"><ele>569.9</ele><time>2013-05-11T12:11:09Z</time></trkpt>
<trkpt lat="55.433165000" lon="-3.382037000"><ele>569.7</ele><time>2013-05-11T12:11:17Z</time></trkpt>
<trkpt lat="55.433071000" lon="-3.382060000"><ele>569.5</ele><time>2013-05-11T12:11:25Z</time></trkpt>
<trkpt lat="55.432985000" lon="-3.382116000"><ele>569.4</ele><time>2013-05-11T12:11:32Z</time></trkpt>
<trkpt lat="55.432891000" lon="-3.382156000"><ele>569.2</ele><time>2013-05-11T12:11:40Z</time></trkpt>
<trkpt lat="55.432792000" lon="-3.382201000"><ele>569.5</ele><time>2013-05-11T12:11:47Z</time></trkpt>
<trkpt lat="55.432703000" lon="-3.382248000"><ele>569.9</ele><time>2013-05-11T12:11:54Z</time></trkpt>
<trkpt lat="55.432608000" lon="-3.382297000"><ele>570.3</ele><time>2013-05-11T12:12:01Z</time></trkpt>
<trkpt lat="55.432510000" lon="-3.382326000"><ele>571.8</ele><time>2013-05-11T12:12:11Z</time></trkpt>
<trkpt lat="55.432416000" lon="-3.382359000"><ele>573.4</ele><time>2013-05-11T12:12:17Z</time></trkpt>
<trkpt lat="55.432323000" lon="-3.382419000"><ele>574.5</ele><time>2013-05-11T12:12:26Z</time></trkpt>
<trkpt lat="55.432233000" lon="-3.382445000"><ele>575.7</ele><time>2013-05-11T12:12:34Z</time></trkpt>
<trkpt lat="55.432138000" lon="-3.382466000"><ele>576.9</ele><time>2013-05-11T12:12:44Z</time></trkpt>
<trkpt lat="55.432042000" lon="-3.382462000"><ele>578.1</ele><time>2013-05-11T12:12:53Z</time></trkpt>
<trkpt lat="55.431955000" lon="-3.382504000"><ele>579.3</ele><time>2013-05-11T12:13:04Z</time></trkpt>
<trkpt lat="55.431863000" lon="-3.382522000"><ele>580.5</ele><time>2013-05-11T12:13:16Z</time></trkpt>
<trkpt lat="55.431773000" lon="-3.382540000"><ele>581.6</ele><time>2013-05-11T12:13:48Z</time></trkpt>
<trkpt lat="55.431683000" lon="-3.382568000"><ele>584.5</ele><time>2013-05-11T12:14:02Z</time></trkpt>
<trkpt lat="55.431592000" lon="-3.382608000"><ele>587.6</ele><time>2013-05-11T12:14:16Z</time></trkpt>
<trkpt lat="55.431502000" lon="-3.382645000"><ele>589.5</ele><time>2013-05-11T12:14:26Z</time></trkpt>
<trkpt lat="55.431411000" lon="-3.382685000"><ele>591.5</ele><time>2013-05-11T12:14:40Z</time></trkpt>
<trkpt lat="55.431320000" lon="-3.382722000"><ele>593.4</ele><time>2013-05-11T12:15:04Z</time></trkpt>
<trkpt lat="55.431230000" lon="-3.382769000"><ele>595.3</ele><time>2013-05-11T12:15:14Z</time></trkpt>
<trkpt lat="55.431141000" lon="-3.382798000"><ele>597.2</ele><time>2013-05-11T12:15:28Z</time></trkpt>
<trkpt lat="55.431050000" lon="-3.382823000"><ele>599.1</ele><time>2013-05-11T12:15:42Z</time></trkpt>
<trkpt lat="55.430962000" lon="-3.382863000"><ele>601.0</ele><time>2013-05-11T12:15:57Z</time></trkpt>
<trkpt lat="55.430874000" lon="-3.382914000"><ele>604.7</ele><time>2013-05-11T12:16:14Z</time></trkpt>
<trkpt lat="55.430781000" lon="-3.382931000"><ele>608.5</ele><time>2013-05-11T12:16:28Z</time></trkpt>
<trkpt lat="55.430690000" lon="-3.382979000"><ele>610.5</ele><time>2013-05-11T12:16:41Z</time></trkpt>
<trkpt lat="55.430594000" lon="-3.382999000"><ele>612.3</ele><time>2013-05-11T12:17:12Z</time></trkpt>
<trkpt lat="55.430503000" lon="-3.383015000"><ele>614.1</ele><time>2013-05-11T12:17:24Z</time></trkpt>
<trkpt lat="55.430412000" lon="-3.383068000"><ele>615.9</ele><time>2013-05-11T12:17:37Z</time></trkpt>
<trkpt lat="55.430325000" lon="-3.383132000"><ele>617.7</ele><time>2013-05-11T12:17:49Z</time></trkpt>
<trkpt lat="55.430235000" lon="-3.383177000"><ele>619.5</ele><time>2013-05-11T12:18:01Z</time></trkpt>
<trkpt lat="55.430144000" lon="-3.383243000"><ele>621.4</ele><time>2013-05-11T12:18:14Z</time></trkpt>
<trkpt lat="55.430061000" lon="-3.383320000"><ele>623.2</ele><time>2013-05-11T12:18:28Z</time></trkpt>
<trkpt lat="55.429968000" lon="-3.383372000"><ele>626.5</ele><time>2013-05-11T12:18:40Z</time></trkpt>
<trkpt lat="55.429892000" lon="-3.383460000"><ele>627.9</ele><time>2013-05-11T12:19:24Z</time></trkpt>
<trkpt lat="55.429817000" lon="-3.383554000"><ele>629.4</ele><time>2013-05-11T12:19:37Z</time></trkpt>
<trkpt lat="55.429742000" lon="-3.383666000"><ele>630.8</ele><time>2013-05-11T12:19:50Z</time></trkpt>
<trkpt lat="55.429657000" lon="-3.383726000"><ele>632.2</ele><time>2013-05-11T12:20:02Z</time></trkpt>
<trkpt lat="55.429567000" lon="-3.383764000"><ele>633.6</ele><time>2013-05-11T12:20:14Z</time></trkpt>
<trkpt lat="55.429479000" lon="-3.383801000"><ele>635.1</ele><time>2013-05-11T12:20:25Z</time></trkpt>
<trkpt lat="55.429387000" lon="-3.383824000"><ele>636.5</ele><time>2013-05-11T12:20:44Z</time></trkpt>
<trkpt lat="55.429300000" lon="-3.383759000"><ele>638.0</ele><time>2013-05-11T12:21:01Z</time></trkpt>
<trkpt lat="55.429207000" lon="-3.383710000"><ele>639.5</ele><time>2013-05-11T12:21:54Z</time></trkpt>
<trkpt lat="55.429122000" lon="-3.383801000"><ele>641.9</ele><time>2013-05-11T12:22:27Z</time></trkpt>
<trkpt lat="55.429059000" lon="-3.383935000"><ele>642.9</ele><time>2013-05-11T12:22:42Z</time></trkpt>
<trkpt lat="55.428967000" lon="-3.383965000"><ele>643.9</ele><time>2013-05-11T12:23:17Z</time></trkpt>
<trkpt lat="55.428876000" lon="-3.383920000"><ele>644.9</ele><time>2013-05-11T12:23:47Z</time></trkpt>
<trkpt lat="55.428784000" lon="-3.383880000"><ele>645.9</ele><time>2013-05-11T12:23:56Z</time></trkpt>
<trkpt lat="55.428689000" lon="-3.383882000"><ele>647.1</ele><time>2013-05-11T12:24:04Z</time></trkpt>
<trkpt lat="55.428590000" lon="-3.383877000"><ele>648.2</ele><time>2013-05-11T12:24:13Z</time></trkpt>
<trkpt lat="55.428491000" lon="-3.383860000"><ele>649.3</ele><time>2013-05-11T12:24:22Z</time></trkpt>
<trkpt lat="55.428401000" lon="-3.383849000"><ele>650.4</ele><time>2013-05-11T12:24:31Z</time></trkpt>
<trkpt lat="55.428307000" lon="-3.383830000"><ele>651.5</ele><time>2013-05-11T12:24:47Z</time></trkpt>
<trkpt lat="55.428259000" lon="-3.383691000"><ele>652.5</ele><time>2013-05-11T12:24:57Z</time></trkpt>
<trkpt lat="55.428196000" lon="-3.383559000"><ele>652.6</ele><time>2013-05-11T12:25:17Z</time></trkpt>
<trkpt lat="55.428123000" lon="-3.383454000"><ele>652.7</ele><time>2013-05-11T12:25:28Z</time></trkpt>
<trkpt lat="55.428064000" lon="-3.383319000"><ele>652.8</ele><time>2013-05-11T12:26:18Z</time></trkpt>
<trkpt lat="55.428038000" lon="-3.383148000"><ele>652.8</ele><time>2013-05-11T12:30:53Z</time></trkpt>
<trkpt lat="55.427961000" lon="-3.383232000"><ele>653.5</ele><time>2013-05-11T12:36:16Z</time></trkpt>
<trkpt lat="55.428011000" lon="-3.383438000"><ele>654.0</ele><time>2013-05-11T12:36:31Z</time></trkpt>
<trkpt lat="55.428067000" lon="-3.383634000"><ele>654.5</ele><time>2013-05-11T12:36:52Z</time></trkpt>
<trkpt lat="55.427992000" lon="-3.383742000"><ele>655.1</ele><time>2013-05-11T12:37:11Z</time></trkpt>
<trkpt lat="55.427949000" lon="-3.383892000"><ele>655.6</ele><time>2013-05-11T12:37:20Z</time></trkpt>
<trkpt lat="55.427892000" lon="-3.384024000"><ele>656.5</ele><time>2013-05-11T12:37:29Z</time></trkpt>
<trkpt lat="55.427822000" lon="-3.384127000"><ele>657.3</ele><time>2013-05-11T12:37:50Z</time></trkpt>
<trkpt lat="55.427761000" lon="-3.384250000"><ele>658.1</ele><time>2013-05-11T12:37:56Z</time></trkpt>
<trkpt lat="55.427692000" lon="-3.384353000"><ele>658.9</ele><time>2013-05-11T12:38:11Z</time></trkpt>
<trkpt lat="55.427626000" lon="-3.384480000"><ele>659.7</ele><time>2013-05-11T12:38:19Z</time></trkpt>
<trkpt lat="55.427563000" lon="-3.384614000"><ele>660.6</ele><time>2013-05-11T12:38:28Z</time></trkpt>
<trkpt lat="55.427513000" lon="-3.384746000"><ele>660.9</ele><time>2013-05-11T12:38:40Z</time></trkpt>
<trkpt lat="55.427445000" lon="-3.384872000"><ele>661.2</ele><time>2013-05-11T12:38:48Z</time></trkpt>
<trkpt lat="55.427389000" lon="-3.384999000"><ele>661.5</ele><time>2013-05-11T12:39:22Z</time></trkpt>
<trkpt lat="55.427299000" lon="-3.384990000"><ele>661.7</ele><time>2013-05-11T12:39:29Z</time></trkpt>
<trkpt lat="55.427393000" lon="-3.384907000"><ele>662.0</ele><time>2013-05-11T12:39:39Z</time></trkpt>
<trkpt lat="55.427304000" lon="-3.384841000"><ele>661.6</ele><time>2013-05-11T12:39:58Z</time></trkpt>
<trkpt lat="55.427212000" lon="-3.384914000"><ele>661.3</ele><time>2013-05-11T12:40:05Z</time></trkpt>
<trkpt lat="55.427181000" lon="-3.385072000"><ele>660.9</ele><time>2013-05-11T12:40:42Z</time></trkpt>
<trkpt lat="55.427246000" lon="-3.385241000"><ele>660.5</ele><time>2013-05-11T12:41:06Z</time></trkpt>
<trkpt lat="55.427308000" lon="-3.385376000"><ele>660.2</ele><time>2013-05-11T12:41:11Z</time></trkpt>
<trkpt lat="55.427382000" lon="-3.385507000"><ele>659.8</ele><time>2013-05-11T12:41:29Z</time></trkpt>
<trkpt lat="55.427441000" lon="-3.385641000"><ele>659.5</ele><time>2013-05-11T12:41:41Z</time></trkpt>
<trkpt lat="55.427508000" lon="-3.385761000"><ele>658.7</ele><time>2013-05-11T12:41:47Z</time></trkpt>
<trkpt lat="55.427598000" lon="-3.385837000"><ele>657.2</ele><time>2013-05-11T12:41:52Z</time></trkpt>
<trkpt lat="55.427685000" lon="-3.385937000"><ele>655.6</ele><time>2013-05-11T12:42:07Z</time></trkpt>
<trkpt lat="55.427748000" lon="-3.386081000"><ele>654.1</ele><time>2013-05-11T12:42:18Z</time></trkpt>
<trkpt lat="55.427820000" lon="-3.386180000"><ele>652.9</ele><time>2013-05-11T12:42:24Z</time></trkpt>
<trkpt lat="55.427918000" lon="-3.386226000"><ele>651.7</ele><time>2013-05-11T12:42:31Z</time></trkpt>
<trkpt lat="55.427995000" lon="-3.386310000"><ele>650.5</ele><time>2013-05-11T12:42:41Z</time></trkpt>
<trkpt lat="55.428054000" lon="-3.386454000"><ele>649.4</ele><time>2013-05-11T12:42:52Z</time></trkpt>
<trkpt lat="55.428149000" lon="-3.386501000"><ele>648.2</ele><time>2013-05-11T12:43:00Z</time></trkpt>
<trkpt lat="55.428240000" lon="-3.386517000"><ele>647.0</ele><time>2013-05-11T12:43:06Z</time></trkpt>
<trkpt lat="55.428339000" lon="-3.386524000"><ele>645.3</ele><time>2013-05-11T12:43:19Z</time></trkpt>
<trkpt lat="55.428397000" lon="-3.386653000"><ele>642.9</ele><time>2013-05-11T12:43:27Z</time></trkpt>
<trkpt lat="55.428465000" lon="-3.386779000"><ele>641.4</ele><time>2013-05-11T12:43:34Z</time></trkpt>
<trkpt lat="55.428526000" lon="-3.386911000"><ele>639.8</ele><time>2013-05-11T12:43:40Z</time></trkpt>
<trkpt lat="55.428613000" lon="-3.386982000"><ele>638.3</ele><time>2013-05-11T12:43:46Z</time></trkpt>
<trkpt lat="55.428699000" lon="-3.387033000"><ele>636.7</ele><time>2013-05-11T12:43:53Z</time></trkpt>
<trkpt lat="55.428792000" lon="-3.387031000"><ele>635.2</ele><time>2013-05-11T12:44:00Z</time></trkpt>
<trkpt lat="55.428867000" lon="-3.387137000"><ele>633.6</ele><time>2013-05-11T12:44:15Z</time></trkpt>
<trkpt lat="55.428929000" lon="-3.387253000"><ele>631.6</ele><time>2013-05-11T12:44:22Z</time></trkpt>
<trkpt lat="55.429018000" lon="-3.387355000"><ele>629.6</ele><time>2013-05-11T12:44:29Z</time></trkpt>
<trkpt lat="55.429084000" lon="-3.387493000"><ele>627.6</ele><time>2013-05-11T12:44:37Z</time></trkpt>
<trkpt lat="55.429155000" lon="-3.387621000"><ele>626.2</ele><time>2013-05-11T12:44:44Z</time></trkpt>
<trkpt lat="55.429219000" lon="-3.387740000"><ele>625.7</ele><time>2013-05-11T12:44:50Z</time></trkpt>
<trkpt lat="55.429245000" lon="-3.387898000"><ele>625.3</ele><time>2013-05-11T12:44:57Z</time></trkpt>
<trkpt lat="55.429303000" lon="-3.388027000"><ele>624.8</ele><time>2013-05-11T12:45:05Z</time></trkpt>
<trkpt lat="55.429365000" lon="-3.388143000"><ele>623.5</ele><time>2013-05-11T12:45:13Z</time></trkpt>
<trkpt lat="55.429452000" lon="-3.388269000"><ele>620.0</ele><time>2013-05-11T12:45:25Z</time></trkpt>
<trkpt lat="55.429514000" lon="-3.388393000"><ele>618.7</ele><time>2013-05-11T12:46:24Z</time></trkpt>
<trkpt lat="55.429581000" lon="-3.388510000"><ele>615.2</ele><time>2013-05-11T12:46:31Z</time></trkpt>
<trkpt lat="55.429616000" lon="-3.388659000"><ele>612.1</ele><time>2013-05-11T12:46:45Z</time></trkpt>
<trkpt lat="55.429626000" lon="-3.388818000"><ele>608.3</ele><time>2013-05-11T12:46:52Z</time></trkpt>
<trkpt lat="55.429660000" lon="-3.388983000"><ele>604.5</ele><time>2013-05-11T12:47:03Z</time></trkpt>
<trkpt lat="55.429642000" lon="-3.389142000"><ele>600.6</ele><time>2013-05-11T12:47:10Z</time></trkpt>
<trkpt lat="55.429676000" lon="-3.389310000"><ele>596.8</ele><time>2013-05-11T12:47:17Z</time></trkpt>
<trkpt lat="55.429704000" lon="-3.389478000"><ele>593.0</ele><time>2013-05-11T12:47:23Z</time></trkpt>
<trkpt lat="55.429724000" lon="-3.389638000"><ele>589.2</ele><time>2013-05-11T12:47:29Z</time></trkpt>
<trkpt lat="55.429827000" lon="-3.389629000"><ele>585.3</ele><time>2013-05-11T12:47:39Z</time></trkpt>
<trkpt lat="55.429768000" lon="-3.389758000"><ele>583.6</ele><time>2013-05-11T12:47:49Z</time></trkpt>
<trkpt lat="55.429804000" lon="-3.389906000"><ele>579.7</ele><time>2013-05-11T12:47:57Z</time></trkpt>
<trkpt lat="55.429881000" lon="-3.390053000"><ele>578.1</ele><time>2013-05-11T12:48:16Z</time></trkpt>
<trkpt lat="55.429916000" lon="-3.390210000"><ele>576.5</ele><time>2013-05-11T12:48:22Z</time></trkpt>
<trkpt lat="55.429908000" lon="-3.390377000"><ele>574.7</ele><time>2013-05-11T12:48:32Z</time></trkpt>
<trkpt lat="55.429897000" lon="-3.390559000"><ele>573.0</ele><time>2013-05-11T12:48:56Z</time></trkpt>
<trkpt lat="55.429908000" lon="-3.390722000"><ele>571.3</ele><time>2013-05-11T12:49:02Z</time></trkpt>
<trkpt lat="55.429914000" lon="-3.390900000"><ele>569.5</ele><time>2013-05-11T12:49:09Z</time></trkpt>
<trkpt lat="55.429918000" lon="-3.391061000"><ele>567.8</ele><time>2013-05-11T12:49:22Z</time></trkpt>
<trkpt lat="55.429898000" lon="-3.391220000"><ele>565.1</ele><time>2013-05-11T12:49:29Z</time></trkpt>
<trkpt lat="55.429870000" lon="-3.391394000"><ele>563.3</ele><time>2013-05-11T12:49:39Z</time></trkpt>
<trkpt lat="55.429904000" lon="-3.391556000"><ele>561.5</ele><time>2013-05-11T12:49:49Z</time></trkpt>
<trkpt lat="55.429893000" lon="-3.391722000"><ele>559.6</ele><time>2013-05-11T12:49:58Z</time></trkpt>
<trkpt lat="55.429914000" lon="-3.391883000"><ele>557.8</ele><time>2013-05-11T12:50:07Z</time></trkpt>
<trkpt lat="55.429917000" lon="-3.392042000"><ele>555.1</ele><time>2013-05-11T12:50:14Z</time></trkpt>
<trkpt lat="55.429928000" lon="-3.392206000"><ele>553.2</ele><time>2013-05-11T12:50:22Z</time></trkpt>
<trkpt lat="55.429924000" lon="-3.392389000"><ele>551.3</ele><time>2013-05-11T12:50:40Z</time></trkpt>
<trkpt lat="55.429934000" lon="-3.392549000"><ele>549.4</ele><time>2013-05-11T12:50:46Z</time></trkpt>
<trkpt lat="55.429940000" lon="-3.392721000"><ele>547.5</ele><time>2013-05-11T12:51:00Z</time></trkpt>
<trkpt lat="55.430001000" lon="-3.392851000"><ele>545.5</ele><time>2013-05-11T12:51:09Z</time></trkpt>
<trkpt lat="55.429962000" lon="-3.393001000"><ele>543.2</ele><time>2013-05-11T12:51:21Z</time></trkpt>
<trkpt lat="55.430032000" lon="-3.393152000"><ele>540.8</ele><time>2013-05-11T12:51:30Z</time></trkpt>
<trkpt lat="55.430016000" lon="-3.393323000"><ele>538.5</ele><time>2013-05-11T12:51:44Z</time></trkpt>
<trkpt lat="55.429994000" lon="-3.393493000"><ele>536.1</ele><time>2013-05-11T12:51:50Z</time></trkpt>
<trkpt lat="55.429992000" lon="-3.393656000"><ele>533.7</ele><time>2013-05-11T12:52:05Z</time></trkpt>
<trkpt lat="55.430049000" lon="-3.393803000"><ele>532.3</ele><time>2013-05-11T12:52:12Z</time></trkpt>
<trkpt lat="55.430141000" lon="-3.393848000"><ele>529.4</ele><time>2013-05-11T12:52:23Z</time></trkpt>
<trkpt lat="55.430134000" lon="-3.394011000"><ele>526.5</ele><time>2013-05-11T12:52:34Z</time></trkpt>
<trkpt lat="55.430183000" lon="-3.394147000"><ele>521.4</ele><time>2013-05-11T12:52:47Z</time></trkpt>
<trkpt lat="55.430181000" lon="-3.394314000"><ele>516.3</ele><time>2013-05-11T12:52:54Z</time></trkpt>
<trkpt lat="55.430278000" lon="-3.394425000"><ele>511.2</ele><time>2013-05-11T12:53:02Z</time></trkpt>
<trkpt lat="55.430342000" lon="-3.394566000"><ele>507.5</ele><time>2013-05-11T12:53:11Z</time></trkpt>
<trkpt lat="55.430425000" lon="-3.394651000"><ele>503.9</ele><time>2013-05-11T12:53:56Z</time></trkpt>
<trkpt lat="55.430519000" lon="-3.394672000"><ele>500.3</ele><time>2013-05-11T12:54:06Z</time></trkpt>
<trkpt lat="55.430593000" lon="-3.394768000"><ele>496.6</ele><time>2013-05-11T12:54:14Z</time></trkpt>
<trkpt lat="55.430685000" lon="-3.394832000"><ele>493.0</ele><time>2013-05-11T12:54:24Z</time></trkpt>
<trkpt lat="55.430772000" lon="-3.394910000"><ele>489.4</ele><time>2013-05-11T12:54:30Z</time></trkpt>
<trkpt lat="55.430866000" lon="-3.394857000"><ele>487.2</ele><time>2013-05-11T12:54:35Z</time></trkpt>
<trkpt lat="55.430941000" lon="-3.394951000"><ele>483.7</ele><time>2013-05-11T12:55:12Z</time></trkpt>
<trkpt lat="55.430946000" lon="-3.395129000"><ele>482.5</ele><time>2013-05-11T12:55:23Z</time></trkpt>
<trkpt lat="55.431066000" lon="-3.395159000"><ele>481.2</ele><time>2013-05-11T12:55:32Z</time></trkpt>
<trkpt lat="55.431170000" lon="-3.395282000"><ele>477.1</ele><time>2013-05-11T12:55:54Z</time></trkpt>
<trkpt lat="55.431267000" lon="-3.395336000"><ele>472.5</ele><time>2013-05-11T12:55:59Z</time></trkpt>
<trkpt lat="55.431282000" lon="-3.395501000"><ele>468.0</ele><time>2013-05-11T12:56:07Z</time></trkpt>
<trkpt lat="55.431283000" lon="-3.395663000"><ele>463.5</ele><time>2013-05-11T12:56:13Z</time></trkpt>
<trkpt lat="55.431262000" lon="-3.395884000"><ele>458.9</ele><time>2013-05-11T12:56:37Z</time></trkpt>
<trkpt lat="55.431306000" lon="-3.396033000"><ele>454.4</ele><time>2013-05-11T12:56:50Z</time></trkpt>
<trkpt lat="55.431313000" lon="-3.396210000"><ele>449.8</ele><time>2013-05-11T12:56:57Z</time></trkpt>
<trkpt lat="55.431402000" lon="-3.396263000"><ele>445.3</ele><time>2013-05-11T12:57:09Z</time></trkpt>
<trkpt lat="55.431493000" lon="-3.396378000"><ele>442.0</ele><time>2013-05-11T12:57:30Z</time></trkpt>
<trkpt lat="55.431610000" lon="-3.396429000"><ele>438.7</ele><time>2013-05-11T12:58:16Z</time></trkpt>
<trkpt lat="55.431693000" lon="-3.396494000"><ele>435.5</ele><time>2013-05-11T12:58:28Z</time></trkpt>
<trkpt lat="55.431760000" lon="-3.396605000"><ele>432.0</ele><time>2013-05-11T12:58:34Z</time></trkpt>
<trkpt lat="55.431823000" lon="-3.396773000"><ele>429.0</ele><time>2013-05-11T12:58:43Z</time></trkpt>
<trkpt lat="55.431885000" lon="-3.396901000"><ele>426.0</ele><time>2013-05-11T12:58:56Z</time></trkpt>
<trkpt lat="55.431976000" lon="-3.396949000"><ele>423.0</ele><time>2013-05-11T12:59:01Z</time></trkpt>
<trkpt lat="55.432069000" lon="-3.396889000"><ele>420.0</ele><time>2013-05-11T12:59:28Z</time></trkpt>
<trkpt lat="55.432163000" lon="-3.396907000"><ele>417.0</ele><time>2013-05-11T13:00:23Z</time></trkpt>
<trkpt lat="55.432259000" lon="-3.396861000"><ele>414.0</ele><time>2013-05-11T13:00:48Z</time></trkpt>
<trkpt lat="55.432348000" lon="-3.396819000"><ele>411.0</ele><time>2013-05-11T13:00:58Z</time></trkpt>
<trkpt lat="55.432438000" lon="-3.396775000"><ele>408.0</ele><time>2013-05-11T13:01:07Z</time></trkpt>
<trkpt lat="55.432515000" lon="-3.396673000"><ele>402.8</ele><time>2013-05-11T13:01:17Z</time></trkpt>
<trkpt lat="55.432613000" lon="-3.396695000"><ele>397.6</ele><time>2013-05-11T13:01:24Z</time></trkpt>
<trkpt lat="55.432713000" lon="-3.396717000"><ele>395.5</ele><time>2013-05-11T13:01:35Z</time></trkpt>
<trkpt lat="55.432809000" lon="-3.396691000"><ele>393.3</ele><time>2013-05-11T13:02:00Z</time></trkpt>
<trkpt lat="55.432902000" lon="-3.396675000"><ele>391.1</ele><time>2013-05-11T13:02:12Z</time></trkpt>
<trkpt lat="55.432990000" lon="-3.396614000"><ele>388.9</ele><time>2013-05-11T13:02:21Z</time></trkpt>
<trkpt lat="55.433088000" lon="-3.396542000"><ele>386.7</ele><time>2013-05-11T13:02:31Z</time></trkpt>
<trkpt lat="55.433163000" lon="-3.396451000"><ele>384.5</ele><time>2013-05-11T13:02:41Z</time></trkpt>
<trkpt lat="55.433226000" lon="-3.396570000"><ele>382.2</ele><time>2013-05-11T13:03:01Z</time></trkpt>
<trkpt lat="55.433288000" lon="-3.396711000"><ele>379.8</ele><time>2013-05-11T13:03:06Z</time></trkpt>
<trkpt lat="55.433344000" lon="-3.396854000"><ele>377.5</ele><time>2013-05-11T13:03:10Z</time></trkpt>
<trkpt lat="55.433419000" lon="-3.396948000"><ele>377.3</ele><time>2013-05-11T13:03:14Z</time></trkpt>
<trkpt lat="55.433511000" lon="-3.397006000"><ele>377.1</ele><time>2013-05-11T13:03:21Z</time></trkpt>
<trkpt lat="55.433537000" lon="-3.397172000"><ele>376.7</ele><time>2013-05-11T13:03:31Z</time></trkpt>
<trkpt lat="55.433482000" lon="-3.397330000"><ele>376.4</ele><time>2013-05-11T13:03:41Z</time></trkpt>
<trkpt lat="55.433532000" lon="-3.397475000"><ele>376.0</ele><time>2013-05-11T13:03:47Z</time></trkpt>
<trkpt lat="55.433622000" lon="-3.397567000"><ele>375.6</ele><time>2013-05-11T13:04:05Z</time></trkpt>
<trkpt lat="55.433647000" lon="-3.397730000"><ele>375.3</ele><time>2013-05-11T13:04:09Z</time></trkpt>
<trkpt lat="55.433623000" lon="-3.397893000"><ele>373.7</ele><time>2013-05-11T13:04:13Z</time></trkpt>
<trkpt lat="55.433619000" lon="-3.398066000"><ele>372.4</ele><time>2013-05-11T13:04:20Z</time></trkpt>
<trkpt lat="55.433662000" lon="-3.398223000"><ele>371.0</ele><time>2013-05-11T13:04:30Z</time></trkpt>
<trkpt lat="55.433656000" lon="-3.398391000"><ele>369.6</ele><time>2013-05-11T13:04:36Z</time></trkpt>
<trkpt lat="55.433693000" lon="-3.398559000"><ele>368.3</ele><time>2013-05-11T13:04:48Z</time></trkpt>
<trkpt lat="55.433764000" lon="-3.398694000"><ele>366.9</ele><time>2013-05-11T13:04:52Z</time></trkpt>
<trkpt lat="55.433827000" lon="-3.398844000"><ele>365.5</ele><time>2013-05-11T13:04:56Z</time></trkpt>
<trkpt lat="55.433829000" lon="-3.399018000"><ele>364.2</ele><time>2013-05-11T13:05:00Z</time></trkpt>
<trkpt lat="55.433887000" lon="-3.399161000"><ele>362.8</ele><time>2013-05-11T13:05:10Z</time></trkpt>
<trkpt lat="55.433980000" lon="-3.399234000"><ele>361.5</ele><time>2013-05-11T13:05:15Z</time></trkpt>
<trkpt lat="55.434017000" lon="-3.399411000"><ele>360.1</ele><time>2013-05-11T13:05:21Z</time></trkpt>
<trkpt lat="55.434069000" lon="-3.399571000"><ele>359.9</ele><time>2013-05-11T13:05:28Z</time></trkpt>
<trkpt lat="55.434147000" lon="-3.399680000"><ele>359.7</ele><time>2013-05-11T13:05:36Z</time></trkpt>
<trkpt lat="55.434239000" lon="-3.399754000"><ele>359.2</ele><time>2013-05-11T13:05:43Z</time></trkpt>
<trkpt lat="55.434309000" lon="-3.399862000"><ele>358.6</ele><time>2013-05-11T13:05:50Z</time></trkpt>
<trkpt lat="55.434407000" lon="-3.399886000"><ele>358.1</ele><time>2013-05-11T13:05:58Z</time></trkpt>
<trkpt lat="55.434496000" lon="-3.399930000"><ele>357.5</ele><time>2013-05-11T13:06:03Z</time></trkpt>
<trkpt lat="55.434584000" lon="-3.399965000"><ele>357.2</ele><time>2013-05-11T13:06:07Z</time></trkpt>
<trkpt lat="55.434667000" lon="-3.400038000"><ele>356.8</ele><time>2013-05-11T13:06:15Z</time></trkpt>
<trkpt lat="55.434760000" lon="-3.400123000"><ele>356.5</ele><time>2013-05-11T13:06:25Z</time></trkpt>
<trkpt lat="55.434852000" lon="-3.400156000"><ele>356.1</ele><time>2013-05-11T13:06:33Z</time></trkpt>
<trkpt lat="55.434946000" lon="-3.400168000"><ele>355.7</ele><time>2013-05-11T13:06:43Z</time></trkpt>
<trkpt lat="55.435028000" lon="-3.400066000"><ele>355.2</ele><time>2013-05-11T13:06:50Z</time></trkpt>
<trkpt lat="55.435126000" lon="-3.400053000"><ele>354.4</ele><time>2013-05-11T13:06:58Z</time></trkpt>
<trkpt lat="55.435216000" lon="-3.400145000"><ele>353.9</ele><time>2013-05-11T13:07:04Z</time></trkpt>
<trkpt lat="55.435307000" lon="-3.400201000"><ele>353.5</ele><time>2013-05-11T13:07:10Z</time></trkpt>
<trkpt lat="55.435401000" lon="-3.400202000"><ele>353.0</ele><time>2013-05-11T13:07:25Z</time></trkpt>
<trkpt lat="55.435460000" lon="-3.400338000"><ele>352.5</ele><time>2013-05-11T13:07:46Z</time></trkpt>
<trkpt lat="55.435494000" lon="-3.400529000"><ele>352.1</ele><time>2013-05-11T13:07:51Z</time></trkpt>
<trkpt lat="55.435564000" lon="-3.400638000"><ele>351.4</ele><time>2013-05-11T13:08:04Z</time></trkpt>
<trkpt lat="55.435619000" lon="-3.400775000"><ele>350.6</ele><time>2013-05-11T13:08:11Z</time></trkpt>
<trkpt lat="55.435711000" lon="-3.400835000"><ele>349.9</ele><time>2013-05-11T13:08:16Z</time></trkpt>
<trkpt lat="55.435803000" lon="-3.400865000"><ele>349.2</ele><time>2013-05-11T13:08:23Z</time></trkpt>
<trkpt lat="55.435833000" lon="-3.401025000"><ele>348.5</ele><time>2013-05-11T13:08:30Z</time></trkpt>
<trkpt lat="55.435893000" lon="-3.401145000"><ele>348.0</ele><time>2013-05-11T13:08:35Z</time></trkpt>
<trkpt lat="55.435985000" lon="-3.401181000"><ele>347.5</ele><time>2013-05-11T13:08:42Z</time></trkpt>
<trkpt lat="55.436068000" lon="-3.401249000"><ele>347.1</ele><time>2013-05-11T13:08:48Z</time></trkpt>
<trkpt lat="55.436151000" lon="-3.401352000"><ele>346.6</ele><time>2013-05-11T13:08:55Z</time></trkpt>
<trkpt lat="55.436321000" lon="-3.401280000"><ele>346.2</ele><time>2013-05-11T13:08:57Z</time></trkpt>
<trkpt lat="55.436369000" lon="-3.401424000"><ele>345.7</ele><time>2013-05-11T13:09:06Z</time></trkpt>
<trkpt lat="55.436454000" lon="-3.401510000"><ele>345.5</ele><time>2013-05-11T13:09:13Z</time></trkpt>
<trkpt lat="55.436549000" lon="-3.401540000"><ele>345.4</ele><time>2013-05-11T13:09:18Z</time></trkpt>
<trkpt lat="55.436644000" lon="-3.401553000"><ele>345.1</ele><time>2013-05-11T13:09:29Z</time></trkpt>
<trkpt lat="55.436738000" lon="-3.401600000"><ele>344.6</ele><time>2013-05-11T13:09:47Z</time></trkpt>
<trkpt lat="55.436827000" lon="-3.401705000"><ele>344.4</ele><time>2013-05-11T13:09:53Z</time></trkpt>
<trkpt lat="55.436898000" lon="-3.401818000"><ele>344.1</ele><time>2013-05-11T13:10:00Z</time></trkpt>
<trkpt lat="55.436972000" lon="-3.401929000"><ele>343.8</ele><time>2013-05-11T13:10:09Z</time></trkpt>
<trkpt lat="55.437054000" lon="-3.402012000"><ele>343.5</ele><time>2013-05-11T13:10:17Z</time></trkpt>
<trkpt lat="55.437164000" lon="-3.402065000"><ele>343.3</ele><time>2013-05-11T13:11:00Z</time></trkpt>
<trkpt lat="55.437254000" lon="-3.402115000"><ele>343.0</ele><time>2013-05-11T13:11:07Z</time></trkpt>
<trkpt lat="55.437307000" lon="-3.402271000"><ele>342.7</ele><time>2013-05-11T13:11:15Z</time></trkpt>
<trkpt lat="55.437393000" lon="-3.402323000"><ele>342.5</ele><time>2013-05-11T13:11:21Z</time></trkpt>
<trkpt lat="55.437499000" lon="-3.402312000"><ele>342.1</ele><time>2013-05-11T13:11:48Z</time></trkpt>
<trkpt lat="55.437598000" lon="-3.402369000"><ele>341.8</ele><time>2013-05-11T13:11:53Z</time></trkpt>
<trkpt lat="55.437667000" lon="-3.402266000"><ele>341.7</ele><time>2013-05-11T13:12:01Z</time></trkpt>
<trkpt lat="55.437765000" lon="-3.402289000"><ele>341.6</ele><time>2013-05-11T13:12:08Z</time></trkpt>
<trkpt lat="55.437851000" lon="-3.402350000"><ele>341.2</ele><time>2013-05-11T13:12:17Z</time></trkpt>
<trkpt lat="55.437942000" lon="-3.402353000"><ele>340.7</ele><time>2013-05-11T13:12:26Z</time></trkpt>
<trkpt lat="55.438025000" lon="-3.402465000"><ele>340.3</ele><time>2013-05-11T13:12:41Z</time></trkpt>
<trkpt lat="55.438092000" lon="-3.402579000"><ele>339.8</ele><time>2013-05-11T13:12:47Z</time></trkpt>
<trkpt lat="55.438158000" lon="-3.402694000"><ele>339.4</ele><time>2013-05-11T13:12:54Z</time></trkpt>
<trkpt lat="55.438233000" lon="-3.402812000"><ele>338.9</ele><time>2013-05-11T13:13:00Z</time></trkpt>
<trkpt lat="55.438292000" lon="-3.402962000"><ele>338.5</ele><time>2013-05-11T13:13:06Z</time></trkpt>
<trkpt lat="55.438338000" lon="-3.403108000"><ele>338.2</ele><time>2013-05-11T13:13:11Z</time></trkpt>
<trkpt lat="55.438397000" lon="-3.403230000"><ele>337.9</ele><time>2013-05-11T13:13:17Z</time></trkpt>
<trkpt lat="55.438438000" lon="-3.403391000"><ele>337.4</ele><time>2013-05-11T13:13:26Z</time></trkpt>
<trkpt lat="55.438501000" lon="-3.403526000"><ele>336.8</ele><time>2013-05-11T13:13:35Z</time></trkpt>
<trkpt lat="55.438568000" lon="-3.403653000"><ele>336.6</ele><time>2013-05-11T13:13:43Z</time></trkpt>
<trkpt lat="55.438651000" lon="-3.403750000"><ele>336.5</ele><time>2013-05-11T13:13:51Z</time></trkpt>
<trkpt lat="55.438716000" lon="-3.403868000"><ele>336.3</ele><time>2013-05-11T13:13:59Z</time></trkpt>
<trkpt lat="55.438805000" lon="-3.403953000"><ele>336.1</ele><time>2013-05-11T13:14:08Z</time></trkpt>
<trkpt lat="55.438894000" lon="-3.404044000"><ele>335.9</ele><time>2013-05-11T13:14:17Z</time></trkpt>
<trkpt lat="55.438986000" lon="-3.404059000"><ele>335.7</ele><time>2013-05-11T13:14:25Z</time></trkpt>
<trkpt lat="55.439080000" lon="-3.404027000"><ele>335.5</ele><time>2013-05-11T13:14:35Z</time></trkpt>
<trkpt lat="55.439176000" lon="-3.404059000"><ele>335.3</ele><time>2013-05-11T13:14:45Z</time></trkpt>
<trkpt lat="55.439266000" lon="-3.404139000"><ele>334.7</ele><time>2013-05-11T13:14:53Z</time></trkpt>
<trkpt lat="55.439348000" lon="-3.404230000"><ele>334.5</ele><time>2013-05-11T13:15:01Z</time></trkpt>
<trkpt lat="55.439425000" lon="-3.404350000"><ele>334.2</ele><time>2013-05-11T13:15:08Z</time></trkpt>
<trkpt lat="55.439516000" lon="-3.404415000"><ele>333.9</ele><time>2013-05-11T13:15:17Z</time></trkpt>
<trkpt lat="55.439591000" lon="-3.404504000"><ele>333.6</ele><time>2013-05-11T13:15:23Z</time></trkpt>
<trkpt lat="55.439667000" lon="-3.404607000"><ele>333.4</ele><time>2013-05-11T13:15:30Z</time></trkpt>
<trkpt lat="55.439745000" lon="-3.404691000"><ele>333.1</ele><time>2013-05-11T13:15:36Z</time></trkpt>
<trkpt lat="55.439829000" lon="-3.404794000"><ele>332.7</ele><time>2013-05-11T13:15:42Z</time></trkpt>
<trkpt lat="55.439901000" lon="-3.404898000"><ele>332.4</ele><time>2013-05-11T13:15:47Z</time></trkpt>
<trkpt lat="55.439964000" lon="-3.405031000"><ele>332.0</ele><time>2013-05-11T13:15:56Z</time></trkpt>
<trkpt lat="55.440074000" lon="-3.405079000"><ele>331.6</ele><time>2013-05-11T13:15:59Z</time></trkpt>
<trkpt lat="55.440140000" lon="-3.405250000"><ele>331.5</ele><time>2013-05-11T13:16:04Z</time></trkpt>
<trkpt lat="55.440186000" lon="-3.405404000"><ele>331.5</ele><time>2013-05-11T13:16:13Z</time></trkpt>
<trkpt lat="55.440211000" lon="-3.405577000"><ele>331.1</ele><time>2013-05-11T13:16:22Z</time></trkpt>
<trkpt lat="55.440229000" lon="-3.405737000"><ele>330.7</ele><time>2013-05-11T13:16:30Z</time></trkpt>
<trkpt lat="55.440296000" lon="-3.405878000"><ele>330.4</ele><time>2013-05-11T13:16:41Z</time></trkpt>
<trkpt lat="55.440340000" lon="-3.406024000"><ele>330.0</ele><time>2013-05-11T13:17:08Z</time></trkpt>
<trkpt lat="55.440412000" lon="-3.406155000"><ele>329.6</ele><time>2013-05-11T13:17:15Z</time></trkpt>
<trkpt lat="55.440490000" lon="-3.406294000"><ele>329.4</ele><time>2013-05-11T13:17:21Z</time></trkpt>
<trkpt lat="55.440570000" lon="-3.406379000"><ele>329.1</ele><time>2013-05-11T13:17:27Z</time></trkpt>
<trkpt lat="55.440607000" lon="-3.406524000"><ele>328.8</ele><time>2013-05-11T13:17:34Z</time></trkpt>
<trkpt lat="55.440675000" lon="-3.406633000"><ele>328.5</ele><time>2013-05-11T13:17:43Z</time></trkpt>
<trkpt lat="55.440762000" lon="-3.406696000"><ele>328.3</ele><time>2013-05-11T13:17:50Z</time></trkpt>
<trkpt lat="55.440850000" lon="-3.406774000"><ele>328.0</ele><time>2013-05-11T13:17:56Z</time></trkpt>
<trkpt lat="55.440912000" lon="-3.406893000"><ele>328.0</ele><time>2013-05-11T13:18:05Z</time></trkpt>
<trkpt lat="55.440989000" lon="-3.406990000"><ele>327.8</ele><time>2013-05-11T13:18:12Z</time></trkpt>
<trkpt lat="55.441068000" lon="-3.407085000"><ele>327.6</ele><time>2013-05-11T13:18:17Z</time></trkpt>
<trkpt lat="55.441148000" lon="-3.407186000"><ele>327.5</ele><time>2013-05-11T13:18:23Z</time></trkpt>
<trkpt lat="55.441203000" lon="-3.407353000"><ele>327.2</ele><time>2013-05-11T13:18:31Z</time></trkpt>
<trkpt lat="55.441252000" lon="-3.407513000"><ele>326.9</ele><time>2013-05-11T13:18:37Z</time></trkpt>
<trkpt lat="55.441318000" lon="-3.407622000"><ele>326.6</ele><time>2013-05-11T13:18:43Z</time></trkpt>
<trkpt lat="55.441407000" lon="-3.407706000"><ele>326.4</ele><time>2013-05-11T13:18:48Z</time></trkpt>
<trkpt lat="55.441471000" lon="-3.407824000"><ele>326.1</ele><time>2013-05-11T13:18:54Z</time></trkpt>
<trkpt lat="55.441516000" lon="-3.407967000"><ele>325.8</ele><time>2013-05-11T13:19:02Z</time></trkpt>
<trkpt lat="55.441602000" lon="-3.408047000"><ele>325.5</ele><time>2013-05-11T13:19:13Z</time></trkpt>
<trkpt lat="55.441704000" lon="-3.408112000"><ele>325.3</ele><time>2013-05-11T13:19:21Z</time></trkpt>
<trkpt lat="55.441802000" lon="-3.408180000"><ele>325.0</ele><time>2013-05-11T13:19:26Z</time></trkpt>
<trkpt lat="55.441886000" lon="-3.408262000"><ele>324.7</ele><time>2013-05-11T13:19:31Z</time></trkpt>
<trkpt lat="55.441969000" lon="-3.408365000"><ele>324.5</ele><time>2013-05-11T13:19:40Z</time></trkpt>
<trkpt lat="55.442026000" lon="-3.408504000"><ele>324.3</ele><time>2013-05-11T13:19:46Z</time></trkpt>
<trkpt lat="55.442096000" lon="-3.408638000"><ele>324.1</ele><time>2013-05-11T13:19:52Z</time></trkpt>
<trkpt lat="55.442188000" lon="-3.408694000"><ele>323.9</ele><time>2013-05-11T13:19:59Z</time></trkpt>
<trkpt lat="55.442252000" lon="-3.408831000"><ele>323.7</ele><time>2013-05-11T13:20:06Z</time></trkpt>
<trkpt lat="55.442336000" lon="-3.408897000"><ele>323.5</ele><time>2013-05-11T13:20:12Z</time></trkpt>
<trkpt lat="55.442422000" lon="-3.408967000"><ele>323.4</ele><time>2013-05-11T13:20:18Z</time></trkpt>
<trkpt lat="55.442512000" lon="-3.409002000"><ele>323.0</ele><time>2013-05-11T13:20:25Z</time></trkpt>
<trkpt lat="55.442611000" lon="-3.409036000"><ele>322.6</ele><time>2013-05-11T13:20:32Z</time></trkpt>
<trkpt lat="55.442709000" lon="-3.409066000"><ele>322.5</ele><time>2013-05-11T13:20:40Z</time></trkpt>
<trkpt lat="55.442798000" lon="-3.409044000"><ele>322.3</ele><time>2013-05-11T13:20:48Z</time></trkpt>
<trkpt lat="55.442893000" lon="-3.408992000"><ele>322.1</ele><time>2013-05-11T13:20:57Z</time></trkpt>
<trkpt lat="55.442986000" lon="-3.409027000"><ele>321.9</ele><time>2013-05-11T13:21:04Z</time></trkpt>
<trkpt lat="55.443060000" lon="-3.409160000"><ele>321.7</ele><time>2013-05-11T13:21:12Z</time></trkpt>
<trkpt lat="55.443133000" lon="-3.409281000"><ele>321.5</ele><time>2013-05-11T13:21:20Z</time></trkpt>
<trkpt lat="55.443207000" lon="-3.409386000"><ele>321.4</ele><time>2013-05-11T13:21:29Z</time></trkpt>
<trkpt lat="55.443295000" lon="-3.409479000"><ele>321.2</ele><time>2013-05-11T13:21:35Z</time></trkpt>
<trkpt lat="55.443349000" lon="-3.409607000"><ele>321.0</ele><time>2013-05-11T13:21:42Z</time></trkpt>
<trkpt lat="55.443414000" lon="-3.409717000"><ele>321.3</ele><time>2013-05-11T13:21:48Z</time></trkpt>
<trkpt lat="55.443456000" lon="-3.409892000"><ele>321.5</ele><time>2013-05-11T13:21:58Z</time></trkpt>
<trkpt lat="55.443494000" lon="-3.410046000"><ele>321.4</ele><time>2013-05-11T13:22:04Z</time></trkpt>
<trkpt lat="55.443546000" lon="-3.410184000"><ele>321.2</ele><time>2013-05-11T13:22:11Z</time></trkpt>
<trkpt lat="55.443623000" lon="-3.410310000"><ele>321.0</ele><time>2013-05-11T13:22:17Z</time></trkpt>
<trkpt lat="55.443671000" lon="-3.410446000"><ele>320.9</ele><time>2013-05-11T13:22:24Z</time></trkpt>
<trkpt lat="55.443728000" lon="-3.410592000"><ele>320.8</ele><time>2013-05-11T13:22:32Z</time></trkpt>
<trkpt lat="55.443799000" lon="-3.410730000"><ele>320.7</ele><time>2013-05-11T13:22:40Z</time></trkpt>
<trkpt lat="55.443867000" lon="-3.410863000"><ele>320.6</ele><time>2013-05-11T13:22:48Z</time></trkpt>
<trkpt lat="55.443919000" lon="-3.411003000"><ele>320.5</ele><time>2013-05-11T13:22:54Z</time></trkpt>
<trkpt lat="55.443966000" lon="-3.411156000"><ele>320.5</ele><time>2013-05-11T13:23:01Z</time></trkpt>
<trkpt lat="55.444056000" lon="-3.411231000"><ele>320.1</ele><time>2013-05-11T13:23:05Z</time></trkpt>
<trkpt lat="55.444136000" lon="-3.411347000"><ele>319.7</ele><time>2013-05-11T13:23:13Z</time></trkpt>
<trkpt lat="55.444194000" lon="-3.411498000"><ele>320.5</ele><time>2013-05-11T13:23:19Z</time></trkpt>
<trkpt lat="55.444244000" lon="-3.411670000"><ele>320.6</ele><time>2013-05-11T13:23:23Z</time></trkpt>
<trkpt lat="55.444335000" lon="-3.411758000"><ele>320.7</ele><time>2013-05-11T13:23:31Z</time></trkpt>
<trkpt lat="55.444418000" lon="-3.411879000"><ele>320.7</ele><time>2013-05-11T13:23:38Z</time></trkpt>
<trkpt lat="55.444509000" lon="-3.411945000"><ele>320.7</ele><time>2013-05-11T13:23:48Z</time></trkpt>
<trkpt lat="55.444588000" lon="-3.412036000"><ele>320.7</ele><time>2013-05-11T13:23:54Z</time></trkpt>
<trkpt lat="55.444675000" lon="-3.412110000"><ele>320.7</ele><time>2013-05-11T13:24:03Z</time></trkpt>
<trkpt lat="55.444768000" lon="-3.412129000"><ele>320.7</ele><time>2013-05-11T13:24:10Z</time></trkpt>
<trkpt lat="55.444857000" lon="-3.412053000"><ele>320.7</ele><time>2013-05-11T13:24:17Z</time></trkpt>
<trkpt lat="55.444948000" lon="-3.412112000"><ele>320.7</ele><time>2013-05-11T13:24:23Z</time></trkpt>
<trkpt lat="55.445000000" lon="-3.412247000"><ele>320.7</ele><time>2013-05-11T13:24:30Z</time></trkpt>
<trkpt lat="55.445091000" lon="-3.412325000"><ele>319.6</ele><time>2013-05-11T13:24:38Z</time></trkpt>
<trkpt lat="55.445171000" lon="-3.412413000"><ele>319.3</ele><time>2013-05-11T13:24:45Z</time></trkpt>
<trkpt lat="55.445273000" lon="-3.412365000"><ele>318.9</ele><time>2013-05-11T13:24:52Z</time></trkpt>
<trkpt lat="55.445361000" lon="-3.412301000"><ele>318.5</ele><time>2013-05-11T13:25:00Z</time></trkpt>
<trkpt lat="55.445449000" lon="-3.412236000"><ele>318.2</ele><time>2013-05-11T13:25:07Z</time></trkpt>
<trkpt lat="55.445521000" lon="-3.412129000"><ele>317.8</ele><time>2013-05-11T13:25:16Z</time></trkpt>
<trkpt lat="55.445585000" lon="-3.412007000"><ele>317.5</ele><time>2013-05-11T13:25:21Z</time></trkpt>
<trkpt lat="55.445659000" lon="-3.411890000"><ele>317.1</ele><time>2013-05-11T13:25:32Z</time></trkpt>
<trkpt lat="55.445749000" lon="-3.411844000"><ele>316.7</ele><time>2013-05-11T13:25:40Z</time></trkpt>
<trkpt lat="55.445800000" lon="-3.411989000"><ele>316.4</ele><time>2013-05-11T13:25:48Z</time></trkpt>
<trkpt lat="55.445873000" lon="-3.412107000"><ele>316.0</ele><time>2013-05-11T13:25:56Z</time></trkpt>
<trkpt lat="55.445946000" lon="-3.412236000"><ele>315.9</ele><time>2013-05-11T13:26:06Z</time></trkpt>
<trkpt lat="55.446030000" lon="-3.412346000"><ele>316.0</ele><time>2013-05-11T13:26:12Z</time></trkpt>
<trkpt lat="55.446105000" lon="-3.412441000"><ele>316.1</ele><time>2013-05-11T13:26:34Z</time></trkpt>
<trkpt lat="55.446168000" lon="-3.412319000"><ele>316.2</ele><time>2013-05-11T13:27:14Z</time></trkpt>
<trkpt lat="55.446228000" lon="-3.412186000"><ele>316.3</ele><time>2013-05-11T13:27:22Z</time></trkpt>
<trkpt lat="55.446292000" lon="-3.412061000"><ele>316.4</ele><time>2013-05-11T13:27:27Z</time></trkpt>
<trkpt lat="55.446359000" lon="-3.411953000"><ele>316.5</ele><time>2013-05-11T13:27:31Z</time></trkpt>
<trkpt lat="55.446422000" lon="-3.411836000"><ele>316.5</ele><time>2013-05-11T13:27:39Z</time></trkpt>
<trkpt lat="55.446497000" lon="-3.411710000"><ele>316.6</ele><time>2013-05-11T13:27:45Z</time></trkpt>
<trkpt lat="55.446561000" lon="-3.411576000"><ele>316.7</ele><time>2013-05-11T13:27:51Z</time></trkpt>
<trkpt lat="55.446637000" lon="-3.411471000"><ele>316.8</ele><time>2013-05-11T13:27:57Z</time></trkpt>
<trkpt lat="55.446713000" lon="-3.411347000"><ele>317.0</ele><time>2013-05-11T13:28:03Z</time></trkpt>
<trkpt lat="55.446783000" lon="-3.411245000"><ele>317.4</ele><time>2013-05-11T13:28:09Z</time></trkpt>
<trkpt lat="55.446873000" lon="-3.411187000"><ele>317.7</ele><time>2013-05-11T13:28:18Z</time></trkpt>
<trkpt lat="55.446945000" lon="-3.411283000"><ele>318.1</ele><time>2013-05-11T13:28:25Z</time></trkpt>
<trkpt lat="55.447027000" lon="-3.411358000"><ele>318.5</ele><time>2013-05-11T13:28:32Z</time></trkpt>
<trkpt lat="55.447111000" lon="-3.411429000"><ele>318.8</ele><time>2013-05-11T13:28:39Z</time></trkpt>
<trkpt lat="55.447208000" lon="-3.411483000"><ele>319.2</ele><time>2013-05-11T13:28:46Z</time></trkpt>
<trkpt lat="55.447304000" lon="-3.411548000"><ele>319.2</ele><time>2013-05-11T13:28:54Z</time></trkpt>
<trkpt lat="55.447391000" lon="-3.411633000"><ele>319.2</ele><time>2013-05-11T13:29:01Z</time></trkpt>
<trkpt lat="55.447485000" lon="-3.411713000"><ele>319.4</ele><time>2013-05-11T13:29:08Z</time></trkpt>
<trkpt lat="55.447574000" lon="-3.411804000"><ele>319.5</ele><time>2013-05-11T13:29:16Z</time></trkpt>
<trkpt lat="55.447668000" lon="-3.411884000"><ele>319.7</ele><time>2013-05-11T13:29:23Z</time></trkpt>
<trkpt lat="55.447767000" lon="-3.411980000"><ele>319.5</ele><time>2013-05-11T13:29:33Z</time></trkpt>
<trkpt lat="55.447855000" lon="-3.412026000"><ele>319.4</ele><time>2013-05-11T13:29:38Z</time></trkpt>
<trkpt lat="55.447949000" lon="-3.412067000"><ele>319.2</ele><time>2013-05-11T13:29:44Z</time></trkpt>
<trkpt lat="55.448041000" lon="-3.412093000"><ele>319.0</ele><time>2013-05-11T13:29:50Z</time></trkpt>
<trkpt lat="55.448132000" lon="-3.412082000"><ele>318.8</ele><time>2013-05-11T13:29:57Z</time></trkpt>
<trkpt lat="55.448224000" lon="-3.412067000"><ele>319.1</ele><time>2013-05-11T13:30:04Z</time></trkpt>
<trkpt lat="55.448321000" lon="-3.412028000"><ele>319.2</ele><time>2013-05-11T13:30:09Z</time></trkpt>
<trkpt lat="55.448419000" lon="-3.411990000"><ele>319.3</ele><time>2013-05-11T13:30:15Z</time></trkpt>
<trkpt lat="55.448518000" lon="-3.411996000"><ele>319.2</ele><time>2013-05-11T13:30:23Z</time></trkpt>
<trkpt lat="55.448615000" lon="-3.411980000"><ele>319.1</ele><time>2013-05-11T13:30:30Z</time></trkpt>
<trkpt lat="55.448717000" lon="-3.411949000"><ele>319.0</ele><time>2013-05-11T13:30:37Z</time></trkpt>
<trkpt lat="55.448804000" lon="-3.411890000"><ele>318.9</ele><time>2013-05-11T13:30:44Z</time></trkpt>
<trkpt lat="55.448887000" lon="-3.411822000"><ele>318.8</ele><time>2013-05-11T13:30:50Z</time></trkpt>
<trkpt lat="55.448981000" lon="-3.411751000"><ele>318.7</ele><time>2013-05-11T13:30:57Z</time></trkpt>
<trkpt lat="55.449070000" lon="-3.411667000"><ele>318.6</ele><time>2013-05-11T13:31:04Z</time></trkpt>
<trkpt lat="55.449154000" lon="-3.411584000"><ele>319.7</ele><time>2013-05-11T13:31:11Z</time></trkpt>
<trkpt lat="55.449243000" lon="-3.411496000"><ele>320.4</ele><time>2013-05-11T13:31:17Z</time></trkpt>
<trkpt lat="55.449322000" lon="-3.411401000"><ele>320.6</ele><time>2013-05-11T13:31:24Z</time></trkpt>
<trkpt lat="55.449416000" lon="-3.411338000"><ele>320.9</ele><time>2013-05-11T13:31:32Z</time></trkpt>
<trkpt lat="55.449496000" lon="-3.411258000"><ele>321.2</ele><time>2013-05-11T13:31:38Z</time></trkpt>
<trkpt lat="55.449567000" lon="-3.411128000"><ele>321.5</ele><time>2013-05-11T13:31:46Z</time></trkpt>
<trkpt lat="55.449637000" lon="-3.410988000"><ele>321.5</ele><time>2013-05-11T13:31:52Z</time></trkpt>
<trkpt lat="55.449705000" lon="-3.410857000"><ele>321.5</ele><time>2013-05-11T13:31:59Z</time></trkpt>
<trkpt lat="55.449793000" lon="-3.410799000"><ele>321.5</ele><time>2013-05-11T13:32:06Z</time></trkpt>
<trkpt lat="55.449789000" lon="-3.410959000"><ele>321.5</ele><time>2013-05-11T13:32:23Z</time></trkpt>
<trkpt lat="55.449871000" lon="-3.411039000"><ele>321.5</ele><time>2013-05-11T13:32:30Z</time></trkpt>
<trkpt lat="55.449944000" lon="-3.411158000"><ele>320.3</ele><time>2013-05-11T13:32:39Z</time></trkpt>
<trkpt lat="55.449993000" lon="-3.411321000"><ele>319.1</ele><time>2013-05-11T13:32:44Z</time></trkpt>
<trkpt lat="55.450008000" lon="-3.411492000"><ele>319.2</ele><time>2013-05-11T13:32:50Z</time></trkpt>
<trkpt lat="55.450074000" lon="-3.411602000"><ele>319.3</ele><time>2013-05-11T13:32:54Z</time></trkpt>
<trkpt lat="55.450167000" lon="-3.411644000"><ele>319.4</ele><time>2013-05-11T13:32:59Z</time></trkpt>
<trkpt lat="55.450272000" lon="-3.411666000"><ele>319.5</ele><time>2013-05-11T13:33:08Z</time></trkpt>
<trkpt lat="55.450368000" lon="-3.411677000"><ele>319.8</ele><time>2013-05-11T13:33:15Z</time></trkpt>
<trkpt lat="55.450468000" lon="-3.411728000"><ele>319.8</ele><time>2013-05-11T13:33:21Z</time></trkpt>
<trkpt lat="55.450553000" lon="-3.411806000"><ele>319.8</ele><time>2013-05-11T13:33:29Z</time></trkpt>
<trkpt lat="55.450661000" lon="-3.411822000"><ele>319.8</ele><time>2013-05-11T13:33:41Z</time></trkpt>
<trkpt lat="55.450769000" lon="-3.411814000"><ele>319.8</ele><time>2013-05-11T13:33:47Z</time></trkpt>
<trkpt lat="55.450832000" lon="-3.411935000"><ele>319.8</ele><time>2013-05-11T13:33:58Z</time></trkpt>
<trkpt lat="55.450844000" lon="-3.412099000"><ele>319.5</ele><time>2013-05-11T13:34:04Z</time></trkpt>
<trkpt lat="55.450879000" lon="-3.412291000"><ele>318.9</ele><time>2013-05-11T13:34:14Z</time></trkpt>
<trkpt lat="55.450963000" lon="-3.412425000"><ele>318.3</ele><time>2013-05-11T13:34:21Z</time></trkpt>
<trkpt lat="55.451036000" lon="-3.412555000"><ele>318.9</ele><time>2013-05-11T13:34:25Z</time></trkpt>
<trkpt lat="55.451091000" lon="-3.412694000"><ele>319.5</ele><time>2013-05-11T13:34:29Z</time></trkpt>
<trkpt lat="55.451149000" lon="-3.412856000"><ele>320.2</ele><time>2013-05-11T13:34:33Z</time></trkpt>
<trkpt lat="55.451205000" lon="-3.412996000"><ele>321.2</ele><time>2013-05-11T13:34:43Z</time></trkpt>
<trkpt lat="55.451283000" lon="-3.413096000"><ele>322.2</ele><time>2013-05-11T13:34:48Z</time></trkpt>
<trkpt lat="55.451346000" lon="-3.413225000"><ele>323.2</ele><time>2013-05-11T13:34:54Z</time></trkpt>
<trkpt lat="55.451383000" lon="-3.413400000"><ele>323.7</ele><time>2013-05-11T13:34:59Z</time></trkpt>
<trkpt lat="55.451438000" lon="-3.413546000"><ele>324.3</ele><time>2013-05-11T13:35:08Z</time></trkpt>
<trkpt lat="55.451378000" lon="-3.413675000"><ele>325.5</ele><time>2013-05-11T13:35:14Z</time></trkpt>
<trkpt lat="55.451467000" lon="-3.413711000"><ele>327.0</ele><time>2013-05-11T13:36:49Z</time></trkpt>
<trkpt lat="55.451467000" lon="-3.413711000"><ele>329.0</ele><time>2013-05-11T13:36:49Z</time></trkpt>
</trkseg>
</trk>
</gpx>
